Observation data for Crane on 01/17/2021      Previous  Date  Next       Current Mesonet Observations  Soil Data  Daily Summary Page  Observations in Plain Language
KCR2 170600Z 09004KT 04/M04 A3008 RMK A01 T00361036  RH  059%=      5-min Rain = 0
KCR2 170601Z 08005KT 04/M04 A3008 RMK A01 T00361037  RH  059%=      5-min Rain = 0
KCR2 170602Z 08004KT 04/M04 A3008 RMK A01 T00351037  RH  059%=      5-min Rain = 0
KCR2 170603Z 08004KT 04/M04 A3008 RMK A01 T00351037  RH  059%=      5-min Rain = 0
KCR2 170604Z 08004KT 04/M04 A3008 RMK A01 T00351037  RH  059%=      5-min Rain = 0
KCR2 170605Z 08004KT 04/M04 A3008 RMK A01 T00351037  RH  059%=      5-min Rain = 0
KCR2 170606Z 08004KT 04/M04 A3008 RMK A01 T00351037  RH  060%=      5-min Rain = 0
KCR2 170607Z 07004KT 04/M04 A3008 RMK A01 T00351036  RH  059%=      5-min Rain = 0
KCR2 170608Z 08003KT 04/M04 A3008 RMK A01 T00351036  RH  060%=      5-min Rain = 0
KCR2 170609Z 07004KT 03/M04 A3008 RMK A01 T00341036  RH  060%=      5-min Rain = 0
KCR2 170610Z 07004KT 03/M04 A3008 RMK A01 T00331037  RH  060%=      5-min Rain = 0
KCR2 170611Z 07004KT 03/M04 A3008 RMK A01 T00331037  RH  060%=      5-min Rain = 0
KCR2 170612Z 07004KT 03/M04 A3008 RMK A01 T00321037  RH  061%=      5-min Rain = 0
KCR2 170613Z 06004KT 03/M04 A3008 RMK A01 T00321037  RH  061%=      5-min Rain = 0
KCR2 170614Z 05004KT 03/M04 A3009 RMK A01 T00321037  RH  061%=      5-min Rain = 0
KCR2 170615Z 05004KT 03/M04 A3009 RMK A01 T00321037  RH  061%=      5-min Rain = 0
KCR2 170616Z 04005KT 03/M04 A3009 RMK A01 T00311037  RH  061%=      5-min Rain = 0
KCR2 170617Z 04005KT 03/M04 A3009 RMK A01 T00311037  RH  061%=      5-min Rain = 0
KCR2 170618Z 04004KT 03/M04 A3009 RMK A01 T00311037  RH  061%=      5-min Rain = 0
KCR2 170619Z 04004KT 03/M04 A3009 RMK A01 T00311038  RH  061%=      5-min Rain = 0
KCR2 170620Z 04004KT 03/M04 A3009 RMK A01 T00311037  RH  061%=      5-min Rain = 0
KCR2 170621Z 05004KT 03/M04 A3009 RMK A01 T00311038  RH  061%=      5-min Rain = 0
KCR2 170622Z 06004KT 03/M04 A3009 RMK A01 T00321037  RH  060%=      5-min Rain = 0
KCR2 170623Z 07003KT 03/M04 A3009 RMK A01 T00331037  RH  060%=      5-min Rain = 0
KCR2 170624Z 07004KT 03/M04 A3009 RMK A01 T00341037  RH  060%=      5-min Rain = 0
KCR2 170625Z 07004KT 04/M04 A3009 RMK A01 T00351038  RH  059%=      5-min Rain = 0
KCR2 170626Z 08004KT 04/M04 A3009 RMK A01 T00351038  RH  059%=      5-min Rain = 0
KCR2 170627Z 07004KT 04/M04 A3009 RMK A01 T00351037  RH  059%=      5-min Rain = 0
KCR2 170628Z 07005KT 03/M04 A3009 RMK A01 T00321038  RH  060%=      5-min Rain = 0
KCR2 170629Z 07004KT 03/M04 A3009 RMK A01 T00301039  RH  061%=      5-min Rain = 0
KCR2 170630Z 07003KT 03/M04 A3009 RMK A01 T00281038  RH  062%=      5-min Rain = 0
KCR2 170631Z 07004KT 03/M04 A3009 RMK A01 T00281038  RH  062%=      5-min Rain = 0
KCR2 170632Z 06004KT 03/M04 A3009 RMK A01 T00271038  RH  062%=      5-min Rain = 0
KCR2 170633Z 06004KT 03/M04 A3009 RMK A01 T00271038  RH  062%=      5-min Rain = 0
KCR2 170634Z 06004KT 03/M04 A3009 RMK A01 T00281038  RH  062%=      5-min Rain = 0
KCR2 170635Z 06004KT 03/M04 A3009 RMK A01 T00281038  RH  062%=      5-min Rain = 0
KCR2 170636Z 06004KT 03/M04 A3009 RMK A01 T00281039  RH  062%=      5-min Rain = 0
KCR2 170637Z 06004KT 03/M04 A3009 RMK A01 T00281039  RH  061%=      5-min Rain = 0
KCR2 170638Z 05004KT 03/M04 A3009 RMK A01 T00281039  RH  061%=      5-min Rain = 0
KCR2 170639Z 05004KT 03/M04 A3009 RMK A01 T00271040  RH  062%=      5-min Rain = 0
KCR2 170640Z 04004KT 03/M04 A301 RMK A01 T00271039  RH  062%=      5-min Rain = 0
KCR2 170641Z 05004KT 03/M04 A301 RMK A01 T00271039  RH  062%=      5-min Rain = 0
KCR2 170642Z 05004KT 03/M04 A301 RMK A01 T00281039  RH  061%=      5-min Rain = 0
KCR2 170643Z 05004KT 03/M04 A301 RMK A01 T00291039  RH  061%=      5-min Rain = 0
KCR2 170644Z 05004KT 03/M04 A301 RMK A01 T00291040  RH  060%=      5-min Rain = 0
KCR2 170645Z 04004KT 03/M04 A301 RMK A01 T00301040  RH  060%=      5-min Rain = 0
KCR2 170646Z 04004KT 03/M04 A301 RMK A01 T00301041  RH  060%=      5-min Rain = 0
KCR2 170647Z 04004KT 03/M04 A301 RMK A01 T00291041  RH  060%=      5-min Rain = 0
KCR2 170648Z 04004KT 03/M04 A301 RMK A01 T00281041  RH  060%=      5-min Rain = 0
KCR2 170649Z 04004KT 03/M04 A301 RMK A01 T00271042  RH  060%=      5-min Rain = 0
KCR2 170650Z 03004KT 03/M04 A301 RMK A01 T00271041  RH  061%=      5-min Rain = 0
KCR2 170651Z 03004KT 03/M04 A301 RMK A01 T00271041  RH  061%=      5-min Rain = 0
KCR2 170652Z 03004KT 03/M04 A301 RMK A01 T00271041  RH  061%=      5-min Rain = 0
KCR2 170653Z 04004KT 03/M04 A301 RMK A01 T00271041  RH  061%=      5-min Rain = 0
KCR2 170654Z 04004KT 03/M04 A301 RMK A01 T00271041  RH  061%=      5-min Rain = 0
KCR2 170655Z 05004KT 03/M04 A301 RMK A01 T00271041  RH  061%=      5-min Rain = 0
KCR2 170656Z 05004KT 03/M04 A301 RMK A01 T00261041  RH  061%=      5-min Rain = 0
KCR2 170657Z 05004KT 03/M04 A301 RMK A01 T00261042  RH  061%=      5-min Rain = 0
KCR2 170658Z 05004KT 03/M04 A301 RMK A01 T00251041  RH  062%=      5-min Rain = 0
KCR2 170659Z 05004KT 03/M04 A301 RMK A01 T00251041  RH  062%=      5-min Rain = 0
KCR2 170700Z 05004KT 03/M04 A301 RMK A01 T00261041  RH  061%=      5-min Rain = 0
KCR2 170701Z 05004KT 03/M04 A301 RMK A01 T00261041  RH  061%=      5-min Rain = 0
KCR2 170702Z 06003KT 03/M04 A301 RMK A01 T00261041  RH  061%=      5-min Rain = 0
KCR2 170703Z 05003KT 03/M04 A301 RMK A01 T00261040  RH  062%=      5-min Rain = 0
KCR2 170704Z 05003KT 03/M04 A301 RMK A01 T00251039  RH  062%=      5-min Rain = 0
KCR2 170705Z 05003KT 02/M04 A301 RMK A01 T00241040  RH  063%=      5-min Rain = 0
KCR2 170706Z 05003KT 02/M04 A301 RMK A01 T00231040  RH  063%=      5-min Rain = 0
KCR2 170707Z 06003KT 02/M04 A301 RMK A01 T00221041  RH  063%=      5-min Rain = 0
KCR2 170708Z 06003KT 02/M04 A301 RMK A01 T00221041  RH  063%=      5-min Rain = 0
KCR2 170709Z 07003KT 02/M04 A301 RMK A01 T00221042  RH  062%=      5-min Rain = 0
KCR2 170710Z 08003KT 02/M04 A301 RMK A01 T00231042  RH  062%=      5-min Rain = 0
KCR2 170711Z 08004KT 02/M04 A301 RMK A01 T00221042  RH  062%=      5-min Rain = 0
KCR2 170712Z 07004KT 02/M04 A301 RMK A01 T00231042  RH  062%=      5-min Rain = 0
KCR2 170713Z 07004KT 02/M04 A301 RMK A01 T00221043  RH  062%=      5-min Rain = 0
KCR2 170714Z 07004KT 02/M04 A301 RMK A01 T00211043  RH  063%=      5-min Rain = 0
KCR2 170715Z 07004KT 02/M04 A301 RMK A01 T00191043  RH  064%=      5-min Rain = 0
KCR2 170716Z 06004KT 02/M04 A301 RMK A01 T00171043  RH  064%=      5-min Rain = 0
KCR2 170717Z 05004KT 02/M04 A301 RMK A01 T00171043  RH  065%=      5-min Rain = 0
KCR2 170718Z 04004KT 02/M04 A301 RMK A01 T00161043  RH  065%=      5-min Rain = 0
KCR2 170719Z 04003KT 02/M04 A301 RMK A01 T00151043  RH  065%=      5-min Rain = 0
KCR2 170720Z 04003KT 02/M04 A301 RMK A01 T00151043  RH  065%=      5-min Rain = 0
KCR2 170721Z 04003KT 01/M04 A301 RMK A01 T00141043  RH  066%=      5-min Rain = 0
KCR2 170722Z 05003KT 01/M04 A301 RMK A01 T00141043  RH  066%=      5-min Rain = 0
KCR2 170723Z 05003KT 01/M04 A301 RMK A01 T00141043  RH  066%=      5-min Rain = 0
KCR2 170724Z 05003KT 02/M04 A301 RMK A01 T00151043  RH  065%=      5-min Rain = 0
KCR2 170725Z 06003KT 02/M04 A301 RMK A01 T00161042  RH  065%=      5-min Rain = 0
KCR2 170726Z 06002KT 02/M04 A301 RMK A01 T00161043  RH  065%=      5-min Rain = 0
KCR2 170727Z 06002KT 02/M04 A301 RMK A01 T00161043  RH  065%=      5-min Rain = 0
KCR2 170728Z 06002KT 02/M04 A301 RMK A01 T00171043  RH  065%=      5-min Rain = 0
KCR2 170729Z 06002KT 02/M04 A301 RMK A01 T00171043  RH  064%=      5-min Rain = 0
KCR2 170730Z 06002KT 02/M04 A301 RMK A01 T00171043  RH  064%=      5-min Rain = 0
KCR2 170731Z 06001KT 02/M04 A301 RMK A01 T00181043  RH  064%=      5-min Rain = 0
KCR2 170732Z 06001KT 02/M04 A301 RMK A01 T00171043  RH  064%=      5-min Rain = 0
KCR2 170733Z 05001KT 02/M04 A301 RMK A01 T00171043  RH  064%=      5-min Rain = 0
KCR2 170734Z 04001KT 02/M04 A3011 RMK A01 T00161044  RH  065%=      5-min Rain = 0
KCR2 170735Z 02001KT 02/M04 A3011 RMK A01 T00151043  RH  065%=      5-min Rain = 0
KCR2 170736Z 02001KT 01/M04 A3011 RMK A01 T00141044  RH  066%=      5-min Rain = 0
KCR2 170737Z 03001KT 01/M04 A3011 RMK A01 T00131044  RH  066%=      5-min Rain = 0
KCR2 170738Z 04001KT 01/M04 A3011 RMK A01 T00121044  RH  066%=      5-min Rain = 0
KCR2 170739Z 04001KT 01/M04 A301 RMK A01 T00121044  RH  066%=      5-min Rain = 0
KCR2 170740Z 05001KT 01/M04 A301 RMK A01 T00111044  RH  067%=      5-min Rain = 0
KCR2 170741Z 05001KT 01/M04 A3011 RMK A01 T00111044  RH  067%=      5-min Rain = 0
KCR2 170742Z 05001KT 01/M04 A3011 RMK A01 T00111043  RH  067%=      5-min Rain = 0
KCR2 170743Z 04001KT 01/M04 A3011 RMK A01 T00101044  RH  067%=      5-min Rain = 0
KCR2 170744Z 05001KT 01/M04 A3011 RMK A01 T00101043  RH  067%=      5-min Rain = 0
KCR2 170745Z 03001KT 01/M04 A3011 RMK A01 T00101044  RH  067%=      5-min Rain = 0
KCR2 170746Z 03001KT 01/M04 A3011 RMK A01 T00101044  RH  067%=      5-min Rain = 0
KCR2 170747Z 02001KT 01/M04 A3011 RMK A01 T00101044  RH  067%=      5-min Rain = 0
KCR2 170748Z 01001KT 01/M04 A3011 RMK A01 T00101043  RH  067%=      5-min Rain = 0
KCR2 170749Z 01000KT 01/M04 A3011 RMK A01 T00101043  RH  067%=      5-min Rain = 0
KCR2 170750Z 00000KT 01/M04 A3011 RMK A01 T00111043  RH  067%=      5-min Rain = 0
KCR2 170751Z 00000KT 01/M04 A3011 RMK A01 T00111043  RH  067%=      5-min Rain = 0
KCR2 170752Z 00000KT 01/M04 A3011 RMK A01 T00121043  RH  067%=      5-min Rain = 0
KCR2 170753Z 30001KT 01/M04 A3011 RMK A01 T00131042  RH  067%=      5-min Rain = 0
KCR2 170754Z 30002KT 01/M04 A3011 RMK A01 T00141042  RH  066%=      5-min Rain = 0
KCR2 170755Z 29002KT 01/M04 A3012 RMK A01 T00141042  RH  066%=      5-min Rain = 0
KCR2 170756Z 29002KT 01/M04 A3012 RMK A01 T00141042  RH  066%=      5-min Rain = 0
KCR2 170757Z 29003KT 01/M04 A3012 RMK A01 T00121042  RH  067%=      5-min Rain = 0
KCR2 170758Z 29003KT 01/M04 A3012 RMK A01 T00101042  RH  068%=      5-min Rain = 0
KCR2 170759Z 29004KT 01/M04 A3012 RMK A01 T00101042  RH  068%=      5-min Rain = 0
KCR2 170800Z 27004KT 01/M04 A3012 RMK A01 T00101043  RH  068%=      5-min Rain = 0
KCR2 170801Z 27005KT 01/M05 A3012 RMK A01 T00081045  RH  068%=      5-min Rain = 0
KCR2 170802Z 27005KT 00/M05 A3012 RMK A01 T00041047  RH  068%=      5-min Rain = 0
KCR2 170803Z 27005KT 00/M05 A3012 RMK A01 T00011048  RH  069%=      5-min Rain = 0
KCR2 170804Z 27005KT M00/M05 A3012 RMK A01 T10011049  RH  070%=      5-min Rain = 0
KCR2 170805Z 27005KT M00/M05 A3013 RMK A01 T10031049  RH  071%=      5-min Rain = 0
KCR2 170806Z 27005KT M00/M05 A3013 RMK A01 T10041049  RH  072%=      5-min Rain = 0
KCR2 170807Z 27005KT M01/M05 A3013 RMK A01 T10051049  RH  072%=      5-min Rain = 0
KCR2 170808Z 27005KT M01/M05 A3013 RMK A01 T10061049  RH  073%=      5-min Rain = 0
KCR2 170809Z 27004KT M01/M05 A3013 RMK A01 T10061049  RH  073%=      5-min Rain = 0
KCR2 170810Z 28004KT M01/M05 A3013 RMK A01 T10071049  RH  073%=      5-min Rain = 0
KCR2 170811Z 28004KT M01/M05 A3013 RMK A01 T10071049  RH  073%=      5-min Rain = 0
KCR2 170812Z 27004KT M01/M05 A3013 RMK A01 T10071049  RH  073%=      5-min Rain = 0
KCR2 170813Z 26004KT M01/M05 A3013 RMK A01 T10071049  RH  073%=      5-min Rain = 0
KCR2 170814Z 25004KT M01/M05 A3013 RMK A01 T10071050  RH  073%=      5-min Rain = 0
KCR2 170815Z 25005KT M01/M05 A3013 RMK A01 T10081050  RH  073%=      5-min Rain = 0
KCR2 170816Z 24005KT M01/M05 A3013 RMK A01 T10091050  RH  074%=      5-min Rain = 0
KCR2 170817Z 24005KT M01/M05 A3013 RMK A01 T10091048  RH  075%=      5-min Rain = 0
KCR2 170818Z 25004KT M01/M05 A3013 RMK A01 T10081045  RH  076%=      5-min Rain = 0
KCR2 170819Z 26004KT M01/M04 A3012 RMK A01 T10071044  RH  076%=      5-min Rain = 0
KCR2 170820Z 27003KT M01/M04 A3012 RMK A01 T10071043  RH  076%=      5-min Rain = 0
KCR2 170821Z 27003KT M01/M04 A3012 RMK A01 T10061043  RH  076%=      5-min Rain = 0
KCR2 170822Z 27002KT M01/M04 A3012 RMK A01 T10061043  RH  076%=      5-min Rain = 0
KCR2 170823Z 27002KT M01/M04 A3012 RMK A01 T10051043  RH  076%=      5-min Rain = 0
KCR2 170824Z 26003KT M00/M04 A3012 RMK A01 T10041042  RH  076%=      5-min Rain = 0
KCR2 170825Z 25004KT M00/M04 A3012 RMK A01 T10041042  RH  076%=      5-min Rain = 0
KCR2 170826Z 23004KT M01/M04 A3013 RMK A01 T10061043  RH  076%=      5-min Rain = 0
KCR2 170827Z 24004KT M01/M04 A3013 RMK A01 T10081044  RH  077%=      5-min Rain = 0
KCR2 170828Z 24005KT M01/M05 A3013 RMK A01 T10101046  RH  077%=      5-min Rain = 0
KCR2 170829Z 25005KT M01/M05 A3013 RMK A01 T10111046  RH  077%=      5-min Rain = 0
KCR2 170830Z 26005KT M01/M04 A3013 RMK A01 T10111044  RH  078%=      5-min Rain = 0
KCR2 170831Z 26004KT M01/M04 A3013 RMK A01 T10091041  RH  079%=      5-min Rain = 0
KCR2 170832Z 27004KT M01/M04 A3013 RMK A01 T10071041  RH  078%=      5-min Rain = 0
KCR2 170833Z 28003KT M01/M04 A3013 RMK A01 T10061042  RH  077%=      5-min Rain = 0
KCR2 170834Z 28003KT M01/M04 A3013 RMK A01 T10061043  RH  076%=      5-min Rain = 0
KCR2 170835Z 28003KT M01/M05 A3013 RMK A01 T10051045  RH  075%=      5-min Rain = 0
KCR2 170836Z 27002KT M01/M05 A3013 RMK A01 T10051046  RH  074%=      5-min Rain = 0
KCR2 170837Z 27002KT M01/M05 A3013 RMK A01 T10051047  RH  073%=      5-min Rain = 0
KCR2 170838Z 27002KT M01/M05 A3013 RMK A01 T10051048  RH  073%=      5-min Rain = 0
KCR2 170839Z 26002KT M01/M05 A3013 RMK A01 T10051049  RH  072%=      5-min Rain = 0
KCR2 170840Z 26003KT M01/M05 A3013 RMK A01 T10051049  RH  072%=      5-min Rain = 0
KCR2 170841Z 26004KT M01/M05 A3013 RMK A01 T10051047  RH  073%=      5-min Rain = 0
KCR2 170842Z 25004KT M01/M04 A3013 RMK A01 T10051044  RH  075%=      5-min Rain = 0
KCR2 170843Z 25005KT M01/M04 A3013 RMK A01 T10051042  RH  076%=      5-min Rain = 0
KCR2 170844Z 26005KT M01/M04 A3013 RMK A01 T10051041  RH  076%=      5-min Rain = 0
KCR2 170845Z 26005KT M01/M04 A3013 RMK A01 T10051041  RH  077%=      5-min Rain = 0
KCR2 170846Z 26005KT M01/M04 A3013 RMK A01 T10051041  RH  077%=      5-min Rain = 0
KCR2 170847Z 26006KT M01/M04 A3013 RMK A01 T10061042  RH  076%=      5-min Rain = 0
KCR2 170848Z 26005KT M01/M04 A3013 RMK A01 T10061043  RH  076%=      5-min Rain = 0
KCR2 170849Z 25005KT M01/M04 A3013 RMK A01 T10061044  RH  075%=      5-min Rain = 0
KCR2 170850Z 25004KT M01/M05 A3013 RMK A01 T10061045  RH  075%=      5-min Rain = 0
KCR2 170851Z 25004KT M01/M05 A3013 RMK A01 T10061045  RH  075%=      5-min Rain = 0
KCR2 170852Z 25004KT M01/M05 A3013 RMK A01 T10061045  RH  075%=      5-min Rain = 0
KCR2 170853Z 25003KT M01/M04 A3013 RMK A01 T10061044  RH  075%=      5-min Rain = 0
KCR2 170854Z 25003KT M01/M04 A3013 RMK A01 T10061044  RH  075%=      5-min Rain = 0
KCR2 170855Z 26003KT M01/M04 A3013 RMK A01 T10061043  RH  076%=      5-min Rain = 0
KCR2 170856Z 26003KT M01/M04 A3013 RMK A01 T10051044  RH  075%=      5-min Rain = 0
KCR2 170857Z 25004KT M01/M04 A3013 RMK A01 T10051044  RH  075%=      5-min Rain = 0
KCR2 170858Z 26004KT M00/M04 A3013 RMK A01 T10041044  RH  075%=      5-min Rain = 0
KCR2 170859Z 26004KT M00/M04 A3013 RMK A01 T10041044  RH  074%=      5-min Rain = 0
KCR2 170900Z 26004KT M00/M05 A3013 RMK A01 T10041045  RH  074%=      5-min Rain = 0
KCR2 170901Z 26004KT M00/M05 A3013 RMK A01 T10041045  RH  074%=      5-min Rain = 0
KCR2 170902Z 25004KT M00/M05 A3012 RMK A01 T10041045  RH  074%=      5-min Rain = 0
KCR2 170903Z 25004KT M00/M05 A3012 RMK A01 T10041045  RH  074%=      5-min Rain = 0
KCR2 170904Z 25004KT M00/M04 A3012 RMK A01 T10031043  RH  074%=      5-min Rain = 0
KCR2 170905Z 25003KT M00/M04 A3012 RMK A01 T10021043  RH  074%=      5-min Rain = 0
KCR2 170906Z 26004KT M00/M04 A3012 RMK A01 T10031043  RH  074%=      5-min Rain = 0
KCR2 170907Z 25003KT M00/M04 A3012 RMK A01 T10021043  RH  074%=      5-min Rain = 0
KCR2 170908Z 25003KT M00/M04 A3012 RMK A01 T10031043  RH  074%=      5-min Rain = 0
KCR2 170909Z 25003KT M00/M04 A3012 RMK A01 T10031044  RH  074%=      5-min Rain = 0
KCR2 170910Z 24003KT M01/M05 A3012 RMK A01 T10051045  RH  074%=      5-min Rain = 0
KCR2 170911Z 24003KT M01/M05 A3012 RMK A01 T10071048  RH  074%=      5-min Rain = 0
KCR2 170912Z 24003KT M01/M05 A3012 RMK A01 T10091050  RH  074%=      5-min Rain = 0
KCR2 170913Z 24003KT M01/M05 A3012 RMK A01 T10111050  RH  075%=      5-min Rain = 0
KCR2 170914Z 23003KT M01/M05 A3012 RMK A01 T10121050  RH  075%=      5-min Rain = 0
KCR2 170915Z 24003KT M01/M05 A3012 RMK A01 T10131050  RH  076%=      5-min Rain = 0
KCR2 170916Z 23003KT M01/M05 A3012 RMK A01 T10131050  RH  076%=      5-min Rain = 0
KCR2 170917Z 23003KT M01/M05 A3012 RMK A01 T10141050  RH  076%=      5-min Rain = 0
KCR2 170918Z 22003KT M01/M05 A3012 RMK A01 T10141050  RH  076%=      5-min Rain = 0
KCR2 170919Z 22003KT M01/M05 A3011 RMK A01 T10141050  RH  077%=      5-min Rain = 0
KCR2 170920Z 21003KT M01/M05 A3011 RMK A01 T10141049  RH  077%=      5-min Rain = 0
KCR2 170921Z 21003KT M01/M05 A3011 RMK A01 T10141048  RH  078%=      5-min Rain = 0
KCR2 170922Z 21003KT M01/M05 A3011 RMK A01 T10141048  RH  078%=      5-min Rain = 0
KCR2 170923Z 22003KT M01/M05 A3011 RMK A01 T10141048  RH  078%=      5-min Rain = 0
KCR2 170924Z 22003KT M01/M05 A3011 RMK A01 T10131047  RH  077%=      5-min Rain = 0
KCR2 170925Z 23003KT M01/M05 A3011 RMK A01 T10121047  RH  077%=      5-min Rain = 0
KCR2 170926Z 23003KT M01/M05 A3012 RMK A01 T10121047  RH  077%=      5-min Rain = 0
KCR2 170927Z 23003KT M01/M05 A3012 RMK A01 T10121048  RH  076%=      5-min Rain = 0
KCR2 170928Z 23003KT M01/M05 A3012 RMK A01 T10131049  RH  077%=      5-min Rain = 0
KCR2 170929Z 24003KT M01/M05 A3012 RMK A01 T10141049  RH  077%=      5-min Rain = 0
KCR2 170930Z 24003KT M02/M05 A3012 RMK A01 T10151050  RH  077%=      5-min Rain = 0
KCR2 170931Z 24003KT M01/M05 A3012 RMK A01 T10141049  RH  077%=      5-min Rain = 0
KCR2 170932Z 24003KT M01/M05 A3012 RMK A01 T10131048  RH  077%=      5-min Rain = 0
KCR2 170933Z 23003KT M01/M05 A3012 RMK A01 T10111045  RH  078%=      5-min Rain = 0
KCR2 170934Z 23003KT M01/M04 A3012 RMK A01 T10101043  RH  078%=      5-min Rain = 0
KCR2 170935Z 23003KT M01/M04 A3012 RMK A01 T10091043  RH  078%=      5-min Rain = 0
KCR2 170936Z 22003KT M01/M05 A3012 RMK A01 T10091045  RH  077%=      5-min Rain = 0
KCR2 170937Z 22004KT M01/M05 A3012 RMK A01 T10091046  RH  076%=      5-min Rain = 0
KCR2 170938Z 22004KT M01/M05 A3012 RMK A01 T10091047  RH  076%=      5-min Rain = 0
KCR2 170939Z 22005KT M01/M05 A3012 RMK A01 T10101049  RH  075%=      5-min Rain = 0
KCR2 170940Z 22004KT M01/M05 A3012 RMK A01 T10101050  RH  074%=      5-min Rain = 0
KCR2 170941Z 23004KT M01/M05 A3012 RMK A01 T10111051  RH  074%=      5-min Rain = 0
KCR2 170942Z 22003KT M01/M05 A3012 RMK A01 T10111051  RH  074%=      5-min Rain = 0
KCR2 170943Z 22004KT M01/M05 A3012 RMK A01 T10121052  RH  074%=      5-min Rain = 0
KCR2 170944Z 23004KT M01/M05 A3012 RMK A01 T10121052  RH  074%=      5-min Rain = 0
KCR2 170945Z 22004KT M01/M05 A3012 RMK A01 T10131052  RH  075%=      5-min Rain = 0
KCR2 170946Z 22005KT M01/M05 A3012 RMK A01 T10131052  RH  075%=      5-min Rain = 0
KCR2 170947Z 22005KT M01/M05 A3012 RMK A01 T10141052  RH  075%=      5-min Rain = 0
KCR2 170948Z 23006KT M02/M05 A3012 RMK A01 T10161053  RH  076%=      5-min Rain = 0
KCR2 170949Z 23006KT M02/M05 A3012 RMK A01 T10161052  RH  076%=      5-min Rain = 0
KCR2 170950Z 23006KT M02/M05 A3012 RMK A01 T10161050  RH  078%=      5-min Rain = 0
KCR2 170951Z 23006KT M02/M05 A3012 RMK A01 T10151047  RH  079%=      5-min Rain = 0
KCR2 170952Z 23006KT M01/M05 A3012 RMK A01 T10141045  RH  079%=      5-min Rain = 0
KCR2 170953Z 23005KT M01/M04 A3012 RMK A01 T10131044  RH  079%=      5-min Rain = 0
KCR2 170954Z 23005KT M01/M04 A3012 RMK A01 T10121044  RH  079%=      5-min Rain = 0
KCR2 170955Z 23006KT M01/M04 A3012 RMK A01 T10121044  RH  079%=      5-min Rain = 0
KCR2 170956Z 23006KT M01/M05 A3012 RMK A01 T10121045  RH  078%=      5-min Rain = 0
KCR2 170957Z 24006KT M01/M05 A3012 RMK A01 T10121045  RH  078%=      5-min Rain = 0
KCR2 170958Z 24006KT M01/M05 A3012 RMK A01 T10121045  RH  078%=      5-min Rain = 0
KCR2 170959Z 24007KT M01/M05 A3012 RMK A01 T10121045  RH  078%=      5-min Rain = 0
KCR2 171000Z 25006KT M01/M05 A3012 RMK A01 T10121046  RH  078%=      5-min Rain = 0
KCR2 171001Z 25006KT M01/M05 A3012 RMK A01 T10121047  RH  077%=      5-min Rain = 0
KCR2 171002Z 25006KT M01/M05 A3012 RMK A01 T10131048  RH  077%=      5-min Rain = 0
KCR2 171003Z 24006KT M01/M05 A3012 RMK A01 T10131048  RH  077%=      5-min Rain = 0
KCR2 171004Z 24005KT M01/M05 A3012 RMK A01 T10131048  RH  077%=      5-min Rain = 0
KCR2 171005Z 24005KT M01/M05 A3012 RMK A01 T10141048  RH  077%=      5-min Rain = 0
KCR2 171006Z 25004KT M01/M05 A3012 RMK A01 T10141048  RH  077%=      5-min Rain = 0
KCR2 171007Z 25004KT M01/M05 A3012 RMK A01 T10141048  RH  077%=      5-min Rain = 0
KCR2 171008Z 24004KT M01/M05 A3012 RMK A01 T10141048  RH  078%=      5-min Rain = 0
KCR2 171009Z 24004KT M02/M05 A3012 RMK A01 T10151048  RH  078%=      5-min Rain = 0
KCR2 171010Z 23005KT M02/M05 A3012 RMK A01 T10151048  RH  078%=      5-min Rain = 0
KCR2 171011Z 23005KT M02/M05 A3012 RMK A01 T10151049  RH  078%=      5-min Rain = 0
KCR2 171012Z 23006KT M02/M05 A3012 RMK A01 T10161048  RH  078%=      5-min Rain = 0
KCR2 171013Z 23006KT M02/M05 A3012 RMK A01 T10161047  RH  079%=      5-min Rain = 0
KCR2 171014Z 23005KT M02/M05 A3012 RMK A01 T10161047  RH  080%=      5-min Rain = 0
KCR2 171015Z 23005KT M02/M05 A3012 RMK A01 T10161047  RH  080%=      5-min Rain = 0
KCR2 171016Z 23005KT M02/M05 A3012 RMK A01 T10161047  RH  079%=      5-min Rain = 0
KCR2 171017Z 23005KT M02/M05 A3012 RMK A01 T10171048  RH  079%=      5-min Rain = 0
KCR2 171018Z 23005KT M02/M05 A3012 RMK A01 T10171047  RH  079%=      5-min Rain = 0
KCR2 171019Z 24005KT M02/M05 A3012 RMK A01 T10171048  RH  079%=      5-min Rain = 0
KCR2 171020Z 24005KT M02/M05 A3012 RMK A01 T10171048  RH  079%=      5-min Rain = 0
KCR2 171021Z 25004KT M02/M05 A3012 RMK A01 T10171048  RH  079%=      5-min Rain = 0
KCR2 171022Z 25003KT M02/M05 A3012 RMK A01 T10171049  RH  079%=      5-min Rain = 0
KCR2 171023Z 25004KT M02/M05 A3012 RMK A01 T10171049  RH  079%=      5-min Rain = 0
KCR2 171024Z 25004KT M02/M05 A3012 RMK A01 T10171050  RH  079%=      5-min Rain = 0
KCR2 171025Z 24005KT M02/M05 A3012 RMK A01 T10181051  RH  078%=      5-min Rain = 0
KCR2 171026Z 24005KT M02/M05 A3012 RMK A01 T10191052  RH  079%=      5-min Rain = 0
KCR2 171027Z 24005KT M02/M05 A3012 RMK A01 T10191051  RH  079%=      5-min Rain = 0
KCR2 171028Z 24005KT M02/M05 A3012 RMK A01 T10201051  RH  079%=      5-min Rain = 0
KCR2 171029Z 24004KT M02/M05 A3012 RMK A01 T10201050  RH  080%=      5-min Rain = 0
KCR2 171030Z 25004KT M02/M05 A3012 RMK A01 T10211050  RH  080%=      5-min Rain = 0
KCR2 171031Z 24005KT M02/M05 A3012 RMK A01 T10211050  RH  080%=      5-min Rain = 0
KCR2 171032Z 24005KT M02/M05 A3012 RMK A01 T10211050  RH  081%=      5-min Rain = 0
KCR2 171033Z 24005KT M02/M05 A3012 RMK A01 T10211050  RH  081%=      5-min Rain = 0
KCR2 171034Z 25004KT M02/M05 A3012 RMK A01 T10221050  RH  081%=      5-min Rain = 0
KCR2 171035Z 26005KT M02/M05 A3012 RMK A01 T10221051  RH  081%=      5-min Rain = 0
KCR2 171036Z 26005KT M02/M05 A3012 RMK A01 T10221051  RH  081%=      5-min Rain = 0
KCR2 171037Z 26005KT M02/M05 A3012 RMK A01 T10231052  RH  081%=      5-min Rain = 0
KCR2 171038Z 26004KT M02/M05 A3012 RMK A01 T10231052  RH  081%=      5-min Rain = 0
KCR2 171039Z 27004KT M02/M05 A3012 RMK A01 T10241053  RH  080%=      5-min Rain = 0
KCR2 171040Z 27004KT M02/M05 A3012 RMK A01 T10241054  RH  080%=      5-min Rain = 0
KCR2 171041Z 27004KT M03/M06 A3012 RMK A01 T10251055  RH  080%=      5-min Rain = 0
KCR2 171042Z 27004KT M03/M06 A3012 RMK A01 T10261056  RH  080%=      5-min Rain = 0
KCR2 171043Z 27004KT M03/M06 A3012 RMK A01 T10261056  RH  080%=      5-min Rain = 0
KCR2 171044Z 27004KT M03/M06 A3012 RMK A01 T10271056  RH  080%=      5-min Rain = 0
KCR2 171045Z 28004KT M03/M06 A3012 RMK A01 T10261056  RH  080%=      5-min Rain = 0
KCR2 171046Z 28004KT M03/M06 A3012 RMK A01 T10271056  RH  080%=      5-min Rain = 0
KCR2 171047Z 29004KT M03/M06 A3012 RMK A01 T10271056  RH  081%=      5-min Rain = 0
KCR2 171048Z 29004KT M03/M06 A3012 RMK A01 T10271056  RH  081%=      5-min Rain = 0
KCR2 171049Z 29004KT M03/M06 A3012 RMK A01 T10271056  RH  081%=      5-min Rain = 0
KCR2 171050Z 28004KT M03/M06 A3012 RMK A01 T10271056  RH  081%=      5-min Rain = 0
KCR2 171051Z 28004KT M03/M06 A3012 RMK A01 T10281056  RH  081%=      5-min Rain = 0
KCR2 171052Z 28004KT M03/M06 A3012 RMK A01 T10281056  RH  081%=      5-min Rain = 0
KCR2 171053Z 28004KT M03/M06 A3012 RMK A01 T10281056  RH  081%=      5-min Rain = 0
KCR2 171054Z 29004KT M03/M06 A3012 RMK A01 T10291057  RH  081%=      5-min Rain = 0
KCR2 171055Z 29004KT M03/M06 A3012 RMK A01 T10291057  RH  081%=      5-min Rain = 0
KCR2 171056Z 29004KT M03/M06 A3012 RMK A01 T10301058  RH  081%=      5-min Rain = 0
KCR2 171057Z 30005KT M03/M06 A3012 RMK A01 T10311058  RH  082%=      5-min Rain = 0
KCR2 171058Z 30004KT M03/M06 A3012 RMK A01 T10311058  RH  082%=      5-min Rain = 0
KCR2 171059Z 30004KT M03/M06 A3012 RMK A01 T10321059  RH  082%=      5-min Rain = 0
KCR2 171100Z 31004KT M03/M06 A3012 RMK A01 T10321059  RH  082%=      5-min Rain = 0
KCR2 171101Z 31005KT M03/M06 A3012 RMK A01 T10331060  RH  082%=      5-min Rain = 0
KCR2 171102Z 31004KT M03/M06 A3012 RMK A01 T10341061  RH  082%=      5-min Rain = 0
KCR2 171103Z 31004KT M03/M06 A3012 RMK A01 T10341061  RH  082%=      5-min Rain = 0
KCR2 171104Z 31004KT M04/M06 A3012 RMK A01 T10351061  RH  082%=      5-min Rain = 0
KCR2 171105Z 31005KT M03/M06 A3012 RMK A01 T10341061  RH  082%=      5-min Rain = 0
KCR2 171106Z 32005KT M04/M06 A3012 RMK A01 T10351061  RH  082%=      5-min Rain = 0
KCR2 171107Z 32006KT M04/M06 A3013 RMK A01 T10351061  RH  082%=      5-min Rain = 0
KCR2 171108Z 32006KT M04/M06 A3013 RMK A01 T10361062  RH  082%=      5-min Rain = 0
KCR2 171109Z 32007KT M04/M06 A3013 RMK A01 T10361062  RH  082%=      5-min Rain = 0
KCR2 171110Z 32008KT M04/M06 A3013 RMK A01 T10371062  RH  082%=      5-min Rain = 0
KCR2 171111Z 32007KT M04/M06 A3013 RMK A01 T10371062  RH  083%=      5-min Rain = 0
KCR2 171112Z 32007KT M04/M06 A3013 RMK A01 T10371062  RH  083%=      5-min Rain = 0
KCR2 171113Z 32006KT M04/M06 A3013 RMK A01 T10371062  RH  083%=      5-min Rain = 0
KCR2 171114Z 32006KT M04/M06 A3013 RMK A01 T10371062  RH  083%=      5-min Rain = 0
KCR2 171115Z 31005KT M04/M06 A3013 RMK A01 T10371061  RH  083%=      5-min Rain = 0
KCR2 171116Z 31005KT M04/M06 A3013 RMK A01 T10361060  RH  083%=      5-min Rain = 0
KCR2 171117Z 31004KT M04/M06 A3013 RMK A01 T10351060  RH  083%=      5-min Rain = 0
KCR2 171118Z 31004KT M04/M06 A3013 RMK A01 T10351060  RH  083%=      5-min Rain = 0
KCR2 171119Z 32004KT M04/M06 A3013 RMK A01 T10351060  RH  083%=      5-min Rain = 0
KCR2 171120Z 31004KT M04/M06 A3013 RMK A01 T10351060  RH  083%=      5-min Rain = 0
KCR2 171121Z 30004KT M04/M06 A3013 RMK A01 T10351060  RH  083%=      5-min Rain = 0
KCR2 171122Z 30005KT M03/M06 A3013 RMK A01 T10341059  RH  083%=      5-min Rain = 0
KCR2 171123Z 29004KT M03/M06 A3013 RMK A01 T10331058  RH  083%=      5-min Rain = 0
KCR2 171124Z 28004KT M03/M06 A3013 RMK A01 T10331059  RH  083%=      5-min Rain = 0
KCR2 171125Z 27003KT M03/M06 A3013 RMK A01 T10331059  RH  082%=      5-min Rain = 0
KCR2 171126Z 26004KT M03/M06 A3013 RMK A01 T10341060  RH  082%=      5-min Rain = 0
KCR2 171127Z 25005KT M04/M06 A3014 RMK A01 T10351060  RH  083%=      5-min Rain = 0
KCR2 171128Z 25005KT M04/M06 A3014 RMK A01 T10361061  RH  083%=      5-min Rain = 0
KCR2 171129Z 26004KT M04/M06 A3014 RMK A01 T10361059  RH  084%=      5-min Rain = 0
KCR2 171130Z 25005KT M04/M06 A3014 RMK A01 T10361058  RH  085%=      5-min Rain = 0
KCR2 171131Z 24005KT M04/M06 A3014 RMK A01 T10361057  RH  085%=      5-min Rain = 0
KCR2 171132Z 23005KT M04/M06 A3014 RMK A01 T10361057  RH  085%=      5-min Rain = 0
KCR2 171133Z 24005KT M04/M06 A3014 RMK A01 T10361056  RH  086%=      5-min Rain = 0
KCR2 171134Z 24005KT M04/M06 A3014 RMK A01 T10361056  RH  086%=      5-min Rain = 0
KCR2 171135Z 23005KT M04/M06 A3014 RMK A01 T10361056  RH  086%=      5-min Rain = 0
KCR2 171136Z 23005KT M04/M06 A3014 RMK A01 T10361055  RH  086%=      5-min Rain = 0
KCR2 171137Z 23005KT M04/M06 A3014 RMK A01 T10351055  RH  086%=      5-min Rain = 0
KCR2 171138Z 24006KT M03/M05 A3014 RMK A01 T10341054  RH  086%=      5-min Rain = 0
KCR2 171139Z 23006KT M03/M05 A3014 RMK A01 T10341054  RH  086%=      5-min Rain = 0
KCR2 171140Z 23006KT M03/M05 A3015 RMK A01 T10341054  RH  086%=      5-min Rain = 0
KCR2 171141Z 24006KT M03/M05 A3015 RMK A01 T10341054  RH  086%=      5-min Rain = 0
KCR2 171142Z 24005KT M03/M06 A3015 RMK A01 T10341055  RH  086%=      5-min Rain = 0
KCR2 171143Z 23006KT M04/M06 A3015 RMK A01 T10351055  RH  086%=      5-min Rain = 0
KCR2 171144Z 23006KT M04/M06 A3015 RMK A01 T10351055  RH  086%=      5-min Rain = 0
KCR2 171145Z 23006KT M04/M06 A3015 RMK A01 T10351055  RH  086%=      5-min Rain = 0
KCR2 171146Z 23006KT M04/M06 A3015 RMK A01 T10351055  RH  086%=      5-min Rain = 0
KCR2 171147Z 24006KT M04/M05 A3015 RMK A01 T10351054  RH  086%=      5-min Rain = 0
KCR2 171148Z 24006KT M03/M05 A3015 RMK A01 T10341053  RH  086%=      5-min Rain = 0
KCR2 171149Z 24006KT M03/M05 A3015 RMK A01 T10331053  RH  086%=      5-min Rain = 0
KCR2 171150Z 24005KT M03/M05 A3014 RMK A01 T10321052  RH  086%=      5-min Rain = 0
KCR2 171151Z 25005KT M03/M05 A3014 RMK A01 T10321052  RH  086%=      5-min Rain = 0
KCR2 171152Z 25005KT M03/M05 A3014 RMK A01 T10311052  RH  086%=      5-min Rain = 0
KCR2 171153Z 25005KT M03/M05 A3014 RMK A01 T10311052  RH  086%=      5-min Rain = 0
KCR2 171154Z 25005KT M03/M05 A3014 RMK A01 T10311052  RH  085%=      5-min Rain = 0
KCR2 171155Z 25005KT M03/M05 A3015 RMK A01 T10311052  RH  085%=      5-min Rain = 0
KCR2 171156Z 25005KT M03/M05 A3015 RMK A01 T10301052  RH  085%=      5-min Rain = 0
KCR2 171157Z 25005KT M03/M05 A3015 RMK A01 T10301053  RH  085%=      5-min Rain = 0
KCR2 171158Z 25004KT M03/M05 A3015 RMK A01 T10301053  RH  084%=      5-min Rain = 0
KCR2 171159Z 25004KT M03/M05 A3015 RMK A01 T10301053  RH  084%=      5-min Rain = 0
KCR2 171200Z 24004KT M03/M05 A3015 RMK A01 T10301053  RH  084%=      5-min Rain = 0
KCR2 171201Z 24003KT M03/M05 A3015 RMK A01 T10301053  RH  084%=      5-min Rain = 0
KCR2 171202Z 23003KT M03/M05 A3015 RMK A01 T10301053  RH  084%=      5-min Rain = 0
KCR2 171203Z 23002KT M03/M05 A3015 RMK A01 T10301052  RH  085%=      5-min Rain = 0
KCR2 171204Z 23002KT M03/M05 A3015 RMK A01 T10311054  RH  084%=      5-min Rain = 0
KCR2 171205Z 24003KT M03/M06 A3015 RMK A01 T10331057  RH  083%=      5-min Rain = 0
KCR2 171206Z 25003KT M03/M06 A3015 RMK A01 T10331058  RH  083%=      5-min Rain = 0
KCR2 171207Z 26003KT M03/M06 A3015 RMK A01 T10341058  RH  083%=      5-min Rain = 0
KCR2 171208Z 26002KT M03/M06 A3015 RMK A01 T10341058  RH  083%=      5-min Rain = 0
KCR2 171209Z 25003KT M03/M06 A3015 RMK A01 T10341058  RH  084%=      5-min Rain = 0
KCR2 171210Z 24004KT M04/M06 A3015 RMK A01 T10351059  RH  084%=      5-min Rain = 0
KCR2 171211Z 24004KT M04/M06 A3015 RMK A01 T10351058  RH  084%=      5-min Rain = 0
KCR2 171212Z 22003KT M04/M06 A3015 RMK A01 T10361058  RH  084%=      5-min Rain = 0
KCR2 171213Z 21004KT M04/M06 A3015 RMK A01 T10361058  RH  085%=      5-min Rain = 0
KCR2 171214Z 21004KT M04/M06 A3015 RMK A01 T10361058  RH  085%=      5-min Rain = 0
KCR2 171215Z 21003KT M04/M06 A3015 RMK A01 T10361058  RH  085%=      5-min Rain = 0
KCR2 171216Z 23003KT M04/M06 A3015 RMK A01 T10361058  RH  085%=      5-min Rain = 0
KCR2 171217Z 24003KT M04/M06 A3015 RMK A01 T10361057  RH  085%=      5-min Rain = 0
KCR2 171218Z 25003KT M04/M06 A3015 RMK A01 T10351057  RH  085%=      5-min Rain = 0
KCR2 171219Z 25003KT M03/M06 A3015 RMK A01 T10341056  RH  085%=      5-min Rain = 0
KCR2 171220Z 25002KT M03/M06 A3015 RMK A01 T10331056  RH  084%=      5-min Rain = 0
KCR2 171221Z 25002KT M03/M06 A3015 RMK A01 T10331056  RH  084%=      5-min Rain = 0
KCR2 171222Z 23002KT M03/M06 A3015 RMK A01 T10321057  RH  083%=      5-min Rain = 0
KCR2 171223Z 21002KT M03/M06 A3015 RMK A01 T10331057  RH  083%=      5-min Rain = 0
KCR2 171224Z 20002KT M03/M06 A3015 RMK A01 T10331058  RH  083%=      5-min Rain = 0
KCR2 171225Z 21002KT M03/M06 A3015 RMK A01 T10341058  RH  083%=      5-min Rain = 0
KCR2 171226Z 22002KT M03/M06 A3015 RMK A01 T10341058  RH  084%=      5-min Rain = 0
KCR2 171227Z 22002KT M04/M06 A3015 RMK A01 T10351058  RH  084%=      5-min Rain = 0
KCR2 171228Z 22002KT M03/M06 A3015 RMK A01 T10341057  RH  084%=      5-min Rain = 0
KCR2 171229Z 22002KT M03/M06 A3015 RMK A01 T10341057  RH  084%=      5-min Rain = 0
KCR2 171230Z 22002KT M03/M06 A3015 RMK A01 T10341057  RH  084%=      5-min Rain = 0
KCR2 171231Z 22002KT M03/M06 A3015 RMK A01 T10341057  RH  084%=      5-min Rain = 0
KCR2 171232Z 22001KT M03/M06 A3015 RMK A01 T10341057  RH  084%=      5-min Rain = 0
KCR2 171233Z 22001KT M03/M06 A3015 RMK A01 T10341057  RH  084%=      5-min Rain = 0
KCR2 171234Z 21001KT M03/M06 A3016 RMK A01 T10341057  RH  084%=      5-min Rain = 0
KCR2 171235Z 20001KT M03/M06 A3015 RMK A01 T10331056  RH  084%=      5-min Rain = 0
KCR2 171236Z 19001KT M03/M06 A3015 RMK A01 T10331056  RH  084%=      5-min Rain = 0
KCR2 171237Z 19001KT M03/M06 A3016 RMK A01 T10331057  RH  084%=      5-min Rain = 0
KCR2 171238Z 19000KT M03/M06 A3016 RMK A01 T10331057  RH  083%=      5-min Rain = 0
KCR2 171239Z 00000KT M03/M06 A3016 RMK A01 T10331057  RH  084%=      5-min Rain = 0
KCR2 171240Z 00000KT M03/M06 A3016 RMK A01 T10341057  RH  084%=      5-min Rain = 0
KCR2 171241Z 00000KT M03/M06 A3016 RMK A01 T10331056  RH  084%=      5-min Rain = 0
KCR2 171242Z 00000KT M03/M06 A3016 RMK A01 T10331056  RH  084%=      5-min Rain = 0
KCR2 171243Z 19000KT M03/M06 A3016 RMK A01 T10331056  RH  084%=      5-min Rain = 0
KCR2 171244Z 09000KT M03/M06 A3016 RMK A01 T10331056  RH  084%=      5-min Rain = 0
KCR2 171245Z 09001KT M03/M06 A3016 RMK A01 T10331056  RH  084%=      5-min Rain = 0
KCR2 171246Z 10001KT M03/M06 A3016 RMK A01 T10321056  RH  084%=      5-min Rain = 0
KCR2 171247Z 11001KT M03/M06 A3016 RMK A01 T10331057  RH  084%=      5-min Rain = 0
KCR2 171248Z 12001KT M03/M06 A3016 RMK A01 T10331058  RH  083%=      5-min Rain = 0
KCR2 171249Z 13001KT M04/M06 A3016 RMK A01 T10351060  RH  083%=      5-min Rain = 0
KCR2 171250Z 13001KT M04/M06 A3016 RMK A01 T10371061  RH  083%=      5-min Rain = 0
KCR2 171251Z 13001KT M04/M06 A3016 RMK A01 T10381062  RH  083%=      5-min Rain = 0
KCR2 171252Z 13000KT M04/M06 A3016 RMK A01 T10391062  RH  084%=      5-min Rain = 0
KCR2 171253Z 10001KT M04/M06 A3016 RMK A01 T10401062  RH  084%=      5-min Rain = 0
KCR2 171254Z 09001KT M04/M06 A3016 RMK A01 T10401062  RH  085%=      5-min Rain = 0
KCR2 171255Z 08001KT M04/M06 A3017 RMK A01 T10401062  RH  085%=      5-min Rain = 0
KCR2 171256Z 08002KT M04/M06 A3017 RMK A01 T10401061  RH  085%=      5-min Rain = 0
KCR2 171257Z 09002KT M04/M06 A3017 RMK A01 T10411062  RH  085%=      5-min Rain = 0
KCR2 171258Z 09002KT M04/M06 A3017 RMK A01 T10411062  RH  085%=      5-min Rain = 0
KCR2 171259Z 09003KT M04/M06 A3017 RMK A01 T10411062  RH  086%=      5-min Rain = 0
KCR2 171300Z 09003KT M04/M06 A3017 RMK A01 T10421062  RH  086%=      5-min Rain = 0
KCR2 171301Z 09003KT M04/M06 A3017 RMK A01 T10411061  RH  086%=      5-min Rain = 0
KCR2 171302Z 08004KT M04/M06 A3017 RMK A01 T10411060  RH  086%=      5-min Rain = 0
KCR2 171303Z 07004KT M04/M06 A3017 RMK A01 T10401060  RH  086%=      5-min Rain = 0
KCR2 171304Z 07004KT M04/M06 A3017 RMK A01 T10411060  RH  086%=      5-min Rain = 0
KCR2 171305Z 07004KT M04/M06 A3017 RMK A01 T10411061  RH  086%=      5-min Rain = 0
KCR2 171306Z 08004KT M04/M06 A3017 RMK A01 T10411061  RH  086%=      5-min Rain = 0
KCR2 171307Z 08004KT M04/M06 A3017 RMK A01 T10421061  RH  087%=      5-min Rain = 0
KCR2 171308Z 07004KT M04/M06 A3017 RMK A01 T10421061  RH  087%=      5-min Rain = 0
KCR2 171309Z 07004KT M04/M06 A3017 RMK A01 T10421061  RH  087%=      5-min Rain = 0
KCR2 171310Z 07004KT M04/M06 A3017 RMK A01 T10431061  RH  087%=      5-min Rain = 0
KCR2 171311Z 07004KT M04/M06 A3017 RMK A01 T10431061  RH  087%=      5-min Rain = 0
KCR2 171312Z 07004KT M04/M06 A3017 RMK A01 T10431061  RH  087%=      5-min Rain = 0
KCR2 171313Z 08003KT M04/M06 A3017 RMK A01 T10431060  RH  088%=      5-min Rain = 0
KCR2 171314Z 07003KT M04/M06 A3017 RMK A01 T10431060  RH  088%=      5-min Rain = 0
KCR2 171315Z 08003KT M04/M06 A3017 RMK A01 T10431060  RH  088%=      5-min Rain = 0
KCR2 171316Z 09003KT M04/M06 A3017 RMK A01 T10431060  RH  088%=      5-min Rain = 0
KCR2 171317Z 09003KT M04/M06 A3017 RMK A01 T10431060  RH  088%=      5-min Rain = 0
KCR2 171318Z 10003KT M04/M06 A3017 RMK A01 T10441061  RH  088%=      5-min Rain = 0
KCR2 171319Z 10003KT M04/M06 A3017 RMK A01 T10441062  RH  088%=      5-min Rain = 0
KCR2 171320Z 11004KT M05/M06 A3017 RMK A01 T10451062  RH  088%=      5-min Rain = 0
KCR2 171321Z 11004KT M05/M06 A3017 RMK A01 T10451062  RH  088%=      5-min Rain = 0
KCR2 171322Z 11004KT M05/M06 A3017 RMK A01 T10451062  RH  088%=      5-min Rain = 0
KCR2 171323Z 11004KT M05/M06 A3017 RMK A01 T10451062  RH  088%=      5-min Rain = 0
KCR2 171324Z 11004KT M05/M06 A3017 RMK A01 T10451061  RH  089%=      5-min Rain = 0
KCR2 171325Z 11004KT M05/M06 A3016 RMK A01 T10461062  RH  089%=      5-min Rain = 0
KCR2 171326Z 11004KT M05/M06 A3016 RMK A01 T10451062  RH  089%=      5-min Rain = 0
KCR2 171327Z 11004KT M05/M06 A3016 RMK A01 T10461062  RH  089%=      5-min Rain = 0
KCR2 171328Z 11005KT M05/M06 A3016 RMK A01 T10461062  RH  089%=      5-min Rain = 0
KCR2 171329Z 12005KT M05/M06 A3016 RMK A01 T10461061  RH  089%=      5-min Rain = 0
KCR2 171330Z 13004KT M05/M06 A3016 RMK A01 T10461061  RH  089%=      5-min Rain = 0
KCR2 171331Z 13005KT M05/M06 A3016 RMK A01 T10461062  RH  089%=      5-min Rain = 0
KCR2 171332Z 13004KT M05/M06 A3017 RMK A01 T10461061  RH  089%=      5-min Rain = 0
KCR2 171333Z 12005KT M05/M06 A3017 RMK A01 T10461061  RH  089%=      5-min Rain = 0
KCR2 171334Z 11005KT M05/M06 A3017 RMK A01 T10461061  RH  089%=      5-min Rain = 0
KCR2 171335Z 11005KT M05/M06 A3017 RMK A01 T10451060  RH  089%=      5-min Rain = 0
KCR2 171336Z 11005KT M05/M06 A3017 RMK A01 T10451060  RH  089%=      5-min Rain = 0
KCR2 171337Z 11005KT M05/M06 A3017 RMK A01 T10451060  RH  089%=      5-min Rain = 0
KCR2 171338Z 11005KT M04/M06 A3017 RMK A01 T10441060  RH  089%=      5-min Rain = 0
KCR2 171339Z 10005KT M05/M06 A3017 RMK A01 T10451060  RH  089%=      5-min Rain = 0
KCR2 171340Z 11006KT M04/M06 A3017 RMK A01 T10441060  RH  089%=      5-min Rain = 0
KCR2 171341Z 10006KT M05/M06 A3017 RMK A01 T10451061  RH  089%=      5-min Rain = 0
KCR2 171342Z 11006KT M05/M06 A3017 RMK A01 T10451061  RH  089%=      5-min Rain = 0
KCR2 171343Z 11006KT M05/M06 A3017 RMK A01 T10451060  RH  089%=      5-min Rain = 0
KCR2 171344Z 12005KT M05/M06 A3017 RMK A01 T10451060  RH  089%=      5-min Rain = 0
KCR2 171345Z 12005KT M05/M06 A3017 RMK A01 T10451060  RH  089%=      5-min Rain = 0
KCR2 171346Z 11005KT M05/M06 A3017 RMK A01 T10451060  RH  089%=      5-min Rain = 0
KCR2 171347Z 10005KT M05/M06 A3017 RMK A01 T10451061  RH  089%=      5-min Rain = 0
KCR2 171348Z 10005KT M05/M06 A3017 RMK A01 T10451061  RH  089%=      5-min Rain = 0
KCR2 171349Z 10005KT M05/M06 A3017 RMK A01 T10461062  RH  089%=      5-min Rain = 0
KCR2 171350Z 09005KT M05/M06 A3017 RMK A01 T10461062  RH  089%=      5-min Rain = 0
KCR2 171351Z 08005KT M05/M06 A3017 RMK A01 T10471062  RH  089%=      5-min Rain = 0
KCR2 171352Z 09005KT M05/M06 A3017 RMK A01 T10471062  RH  089%=      5-min Rain = 0
KCR2 171353Z 08006KT M05/M06 A3017 RMK A01 T10471061  RH  090%=      5-min Rain = 0
KCR2 171354Z 08006KT M05/M06 A3017 RMK A01 T10461060  RH  090%=      5-min Rain = 0
KCR2 171355Z 07006KT M05/M06 A3017 RMK A01 T10451059  RH  090%=      5-min Rain = 0
KCR2 171356Z 08006KT M04/M06 A3017 RMK A01 T10441058  RH  090%=      5-min Rain = 0
KCR2 171357Z 09006KT M04/M06 A3017 RMK A01 T10431058  RH  090%=      5-min Rain = 0
KCR2 171358Z 08006KT M04/M06 A3017 RMK A01 T10431057  RH  090%=      5-min Rain = 0
KCR2 171359Z 08007KT M04/M06 A3017 RMK A01 T10421057  RH  089%=      5-min Rain = 0
KCR2 171400Z 08006KT M04/M06 A3017 RMK A01 T10411057  RH  089%=      5-min Rain = 0
KCR2 171401Z 08005KT M04/M06 A3017 RMK A01 T10411057  RH  089%=      5-min Rain = 0
KCR2 171402Z 08005KT M04/M06 A3018 RMK A01 T10411057  RH  089%=      5-min Rain = 0
KCR2 171403Z 08005KT M04/M06 A3018 RMK A01 T10411058  RH  088%=      5-min Rain = 0
KCR2 171404Z 08005KT M04/M06 A3017 RMK A01 T10411058  RH  088%=      5-min Rain = 0
KCR2 171405Z 08005KT M04/M06 A3017 RMK A01 T10411058  RH  088%=      5-min Rain = 0
KCR2 171406Z 08005KT M04/M06 A3017 RMK A01 T10411058  RH  088%=      5-min Rain = 0
KCR2 171407Z 08005KT M04/M06 A3017 RMK A01 T10411058  RH  088%=      5-min Rain = 0
KCR2 171408Z 09005KT M04/M06 A3017 RMK A01 T10411059  RH  088%=      5-min Rain = 0
KCR2 171409Z 09004KT M04/M06 A3017 RMK A01 T10411059  RH  088%=      5-min Rain = 0
KCR2 171410Z 09004KT M04/M06 A3018 RMK A01 T10411058  RH  088%=      5-min Rain = 0
KCR2 171411Z 09005KT M04/M06 A3018 RMK A01 T10411058  RH  088%=      5-min Rain = 0
KCR2 171412Z 09005KT M04/M06 A3017 RMK A01 T10401058  RH  088%=      5-min Rain = 0
KCR2 171413Z 09005KT M04/M06 A3017 RMK A01 T10401057  RH  088%=      5-min Rain = 0
KCR2 171414Z 09005KT M04/M06 A3017 RMK A01 T10391056  RH  088%=      5-min Rain = 0
KCR2 171415Z 09005KT M04/M06 A3017 RMK A01 T10381055  RH  088%=      5-min Rain = 0
KCR2 171416Z 09005KT M04/M06 A3017 RMK A01 T10371055  RH  088%=      5-min Rain = 0
KCR2 171417Z 09005KT M04/M06 A3017 RMK A01 T10371055  RH  087%=      5-min Rain = 0
KCR2 171418Z 09005KT M04/M06 A3017 RMK A01 T10361055  RH  087%=      5-min Rain = 0
KCR2 171419Z 09005KT M04/M06 A3017 RMK A01 T10361055  RH  087%=      5-min Rain = 0
KCR2 171420Z 09005KT M04/M06 A3017 RMK A01 T10361055  RH  086%=      5-min Rain = 0
KCR2 171421Z 10005KT M04/M06 A3017 RMK A01 T10351055  RH  086%=      5-min Rain = 0
KCR2 171422Z 10005KT M04/M06 A3017 RMK A01 T10351055  RH  086%=      5-min Rain = 0
KCR2 171423Z 10005KT M04/M06 A3017 RMK A01 T10351055  RH  086%=      5-min Rain = 0
KCR2 171424Z 10004KT M03/M05 A3017 RMK A01 T10341054  RH  086%=      5-min Rain = 0
KCR2 171425Z 10005KT M03/M05 A3017 RMK A01 T10331053  RH  086%=      5-min Rain = 0
KCR2 171426Z 10004KT M03/M05 A3017 RMK A01 T10321052  RH  086%=      5-min Rain = 0
KCR2 171427Z 10004KT M03/M05 A3017 RMK A01 T10311052  RH  086%=      5-min Rain = 0
KCR2 171428Z 10004KT M03/M05 A3017 RMK A01 T10301051  RH  086%=      5-min Rain = 0
KCR2 171429Z 10005KT M03/M05 A3017 RMK A01 T10291050  RH  086%=      5-min Rain = 0
KCR2 171430Z 10004KT M03/M05 A3017 RMK A01 T10281049  RH  085%=      5-min Rain = 0
KCR2 171431Z 11004KT M03/M05 A3017 RMK A01 T10271049  RH  085%=      5-min Rain = 0
KCR2 171432Z 11004KT M03/M05 A3017 RMK A01 T10261048  RH  085%=      5-min Rain = 0
KCR2 171433Z 11004KT M03/M05 A3017 RMK A01 T10251048  RH  084%=      5-min Rain = 0
KCR2 171434Z 11004KT M02/M05 A3017 RMK A01 T10241047  RH  084%=      5-min Rain = 0
KCR2 171435Z 11003KT M02/M05 A3017 RMK A01 T10221046  RH  084%=      5-min Rain = 0
KCR2 171436Z 12004KT M02/M05 A3017 RMK A01 T10211046  RH  083%=      5-min Rain = 0
KCR2 171437Z 11004KT M02/M05 A3017 RMK A01 T10201047  RH  082%=      5-min Rain = 0
KCR2 171438Z 13003KT M02/M05 A3017 RMK A01 T10201047  RH  082%=      5-min Rain = 0
KCR2 171439Z 12003KT M02/M05 A3017 RMK A01 T10191047  RH  081%=      5-min Rain = 0
KCR2 171440Z 13002KT M02/M05 A3017 RMK A01 T10181046  RH  081%=      5-min Rain = 0
KCR2 171441Z 13003KT M02/M05 A3017 RMK A01 T10171046  RH  081%=      5-min Rain = 0
KCR2 171442Z 12003KT M02/M05 A3017 RMK A01 T10151045  RH  081%=      5-min Rain = 0
KCR2 171443Z 13004KT M01/M04 A3017 RMK A01 T10141043  RH  080%=      5-min Rain = 0
KCR2 171444Z 13003KT M01/M04 A3017 RMK A01 T10131044  RH  079%=      5-min Rain = 0
KCR2 171445Z 13003KT M01/M04 A3017 RMK A01 T10121044  RH  079%=      5-min Rain = 0
KCR2 171446Z 13004KT M01/M04 A3017 RMK A01 T10111043  RH  079%=      5-min Rain = 0
KCR2 171447Z 13003KT M01/M04 A3017 RMK A01 T10101042  RH  079%=      5-min Rain = 0
KCR2 171448Z 14003KT M01/M04 A3017 RMK A01 T10091042  RH  078%=      5-min Rain = 0
KCR2 171449Z 14003KT M01/M04 A3017 RMK A01 T10081041  RH  078%=      5-min Rain = 0
KCR2 171450Z 14003KT M01/M04 A3017 RMK A01 T10061040  RH  078%=      5-min Rain = 0
KCR2 171451Z 14003KT M01/M04 A3017 RMK A01 T10051040  RH  077%=      5-min Rain = 0
KCR2 171452Z 14003KT M00/M04 A3017 RMK A01 T10041039  RH  077%=      5-min Rain = 0
KCR2 171453Z 14003KT M00/M04 A3017 RMK A01 T10031040  RH  076%=      5-min Rain = 0
KCR2 171454Z 13003KT M00/M04 A3017 RMK A01 T10011039  RH  075%=      5-min Rain = 0
KCR2 171455Z 13003KT 00/04 A3017 RMK A01 T00000-39  RH  075%=      5-min Rain = 0
KCR2 171456Z 13003KT 00/M04 A3017 RMK A01 T00011040  RH  074%=      5-min Rain = 0
KCR2 171457Z 13002KT 00/M04 A3017 RMK A01 T00031039  RH  074%=      5-min Rain = 0
KCR2 171458Z 13002KT 00/M04 A3017 RMK A01 T00031039  RH  073%=      5-min Rain = 0
KCR2 171459Z 13002KT 01/M04 A3017 RMK A01 T00051037  RH  074%=      5-min Rain = 0
KCR2 171500Z 13002KT 01/M04 A3017 RMK A01 T00061038  RH  072%=      5-min Rain = 0
KCR2 171501Z 13002KT 01/M04 A3017 RMK A01 T00071040  RH  071%=      5-min Rain = 0
KCR2 171502Z 13002KT 01/M04 A3017 RMK A01 T00081040  RH  070%=      5-min Rain = 0
KCR2 171503Z 15002KT 01/M04 A3017 RMK A01 T00101038  RH  070%=      5-min Rain = 0
KCR2 171504Z 15002KT 01/M04 A3017 RMK A01 T00111038  RH  070%=      5-min Rain = 0
KCR2 171505Z 15002KT 01/M04 A3017 RMK A01 T00131039  RH  069%=      5-min Rain = 0
KCR2 171506Z 14002KT 02/M04 A3017 RMK A01 T00151037  RH  068%=      5-min Rain = 0
KCR2 171507Z 13002KT 02/M04 A3017 RMK A01 T00161037  RH  068%=      5-min Rain = 0
KCR2 171508Z 13002KT 02/M04 A3017 RMK A01 T00181038  RH  067%=      5-min Rain = 0
KCR2 171509Z 11002KT 02/M04 A3017 RMK A01 T00201035  RH  067%=      5-min Rain = 0
KCR2 171510Z 11002KT 02/M04 A3017 RMK A01 T00221036  RH  066%=      5-min Rain = 0
KCR2 171511Z 10002KT 02/M04 A3017 RMK A01 T00231036  RH  065%=      5-min Rain = 0
KCR2 171512Z 09003KT 03/M04 A3018 RMK A01 T00251036  RH  064%=      5-min Rain = 0
KCR2 171513Z 10003KT 03/M04 A3018 RMK A01 T00261040  RH  062%=      5-min Rain = 0
KCR2 171514Z 09003KT 03/M04 A3018 RMK A01 T00271041  RH  061%=      5-min Rain = 0
KCR2 171515Z 09003KT 03/M04 A3018 RMK A01 T00271043  RH  060%=      5-min Rain = 0
KCR2 171516Z 09003KT 03/M05 A3018 RMK A01 T00281045  RH  058%=      5-min Rain = 0
KCR2 171517Z 09004KT 03/M05 A3018 RMK A01 T00291045  RH  059%=      5-min Rain = 0
KCR2 171518Z 09003KT 03/M04 A3018 RMK A01 T00301044  RH  058%=      5-min Rain = 0
KCR2 171519Z 08004KT 03/M04 A3018 RMK A01 T00301044  RH  058%=      5-min Rain = 0
KCR2 171520Z 08003KT 03/M04 A3018 RMK A01 T00301043  RH  058%=      5-min Rain = 0
KCR2 171521Z 07003KT 03/M04 A3018 RMK A01 T00311043  RH  058%=      5-min Rain = 0
KCR2 171522Z 08002KT 03/M05 A3019 RMK A01 T00311045  RH  057%=      5-min Rain = 0
KCR2 171523Z 06002KT 03/M05 A3019 RMK A01 T00321046  RH  057%=      5-min Rain = 0
KCR2 171524Z 07002KT 03/M05 A3019 RMK A01 T00321046  RH  057%=      5-min Rain = 0
KCR2 171525Z 06001KT 03/M05 A3019 RMK A01 T00331046  RH  057%=      5-min Rain = 0
KCR2 171526Z 05001KT 03/M04 A3019 RMK A01 T00331042  RH  058%=      5-min Rain = 0
KCR2 171527Z 04002KT 03/M04 A3019 RMK A01 T00341043  RH  057%=      5-min Rain = 0
KCR2 171528Z 04002KT 04/M04 A3019 RMK A01 T00351044  RH  056%=      5-min Rain = 0
KCR2 171529Z 04001KT 04/M05 A302 RMK A01 T00351045  RH  056%=      5-min Rain = 0
KCR2 171530Z 05001KT 04/M05 A302 RMK A01 T00351045  RH  056%=      5-min Rain = 0
KCR2 171531Z 05001KT 04/M05 A302 RMK A01 T00361046  RH  055%=      5-min Rain = 0
KCR2 171532Z 07001KT 04/M05 A302 RMK A01 T00371046  RH  055%=      5-min Rain = 0
KCR2 171533Z 05000KT 04/M04 A302 RMK A01 T00381044  RH  055%=      5-min Rain = 0
KCR2 171534Z 00000KT 04/M05 A302 RMK A01 T00401045  RH  054%=      5-min Rain = 0
KCR2 171535Z 00000KT 04/M04 A302 RMK A01 T00421044  RH  054%=      5-min Rain = 0
KCR2 171536Z 00000KT 05/M04 A302 RMK A01 T00451044  RH  052%=      5-min Rain = 0
KCR2 171537Z 24000KT 05/M04 A302 RMK A01 T00471043  RH  052%=      5-min Rain = 0
KCR2 171538Z 26000KT 05/M04 A302 RMK A01 T00481043  RH  052%=      5-min Rain = 0
KCR2 171539Z 24000KT 05/M04 A302 RMK A01 T00481042  RH  052%=      5-min Rain = 0
KCR2 171540Z 26001KT 05/M04 A302 RMK A01 T00471042  RH  053%=      5-min Rain = 0
KCR2 171541Z 28000KT 05/M05 A302 RMK A01 T00471045  RH  052%=      5-min Rain = 0
KCR2 171542Z 26000KT 05/M05 A302 RMK A01 T00471047  RH  051%=      5-min Rain = 0
KCR2 171543Z 00000KT 05/M05 A302 RMK A01 T00471047  RH  051%=      5-min Rain = 0
KCR2 171544Z 26000KT 05/M05 A302 RMK A01 T00471047  RH  050%=      5-min Rain = 0
KCR2 171545Z 23001KT 05/M04 A302 RMK A01 T00471044  RH  052%=      5-min Rain = 0
KCR2 171546Z 22001KT 05/M04 A302 RMK A01 T00471043  RH  052%=      5-min Rain = 0
KCR2 171547Z 23001KT 05/M04 A302 RMK A01 T00481043  RH  052%=      5-min Rain = 0
KCR2 171548Z 25002KT 05/M04 A302 RMK A01 T00491041  RH  052%=      5-min Rain = 0
KCR2 171549Z 26002KT 05/M04 A3021 RMK A01 T00491042  RH  052%=      5-min Rain = 0
KCR2 171550Z 26001KT 05/M04 A3021 RMK A01 T00481044  RH  052%=      5-min Rain = 0
KCR2 171551Z 27001KT 05/M04 A3021 RMK A01 T00471039  RH  054%=      5-min Rain = 0
KCR2 171552Z 27001KT 05/M04 A3021 RMK A01 T00481041  RH  052%=      5-min Rain = 0
KCR2 171553Z 30001KT 05/M04 A3021 RMK A01 T00481043  RH  052%=      5-min Rain = 0
KCR2 171554Z 30001KT 05/M04 A3021 RMK A01 T00471044  RH  051%=      5-min Rain = 0
KCR2 171555Z 30002KT 05/M05 A3021 RMK A01 T00471045  RH  051%=      5-min Rain = 0
KCR2 171556Z 27001KT 05/M04 A3021 RMK A01 T00471044  RH  052%=      5-min Rain = 0
KCR2 171557Z 28000KT 05/M05 A3021 RMK A01 T00471045  RH  051%=      5-min Rain = 0
KCR2 171558Z 28001KT 05/M04 A3021 RMK A01 T00471044  RH  051%=      5-min Rain = 0
KCR2 171559Z 27000KT 05/M04 A3021 RMK A01 T00491041  RH  052%=      5-min Rain = 0
KCR2 171600Z 28001KT 05/M04 A3021 RMK A01 T00501040  RH  052%=      5-min Rain = 0
KCR2 171601Z 25001KT 05/M04 A3021 RMK A01 T00511039  RH  052%=      5-min Rain = 0
KCR2 171602Z 24000KT 05/M04 A3021 RMK A01 T00521041  RH  051%=      5-min Rain = 0
KCR2 171603Z 00000KT 05/M04 A3021 RMK A01 T00531040  RH  051%=      5-min Rain = 0
KCR2 171604Z 00000KT 06/M04 A3021 RMK A01 T00551039  RH  051%=      5-min Rain = 0
KCR2 171605Z 30001KT 06/M04 A3021 RMK A01 T00561040  RH  050%=      5-min Rain = 0
KCR2 171606Z 30000KT 06/M04 A3021 RMK A01 T00571038  RH  051%=      5-min Rain = 0
KCR2 171607Z 16000KT 06/M04 A3021 RMK A01 T00591036  RH  051%=      5-min Rain = 0
KCR2 171608Z 22000KT 06/M04 A3021 RMK A01 T00611038  RH  049%=      5-min Rain = 0
KCR2 171609Z 19001KT 06/M04 A3021 RMK A01 T00631037  RH  049%=      5-min Rain = 0
KCR2 171610Z 14000KT 06/M04 A3021 RMK A01 T00631038  RH  048%=      5-min Rain = 0
KCR2 171611Z 25000KT 06/M04 A3021 RMK A01 T00631036  RH  049%=      5-min Rain = 0
KCR2 171612Z 24000KT 06/M04 A3021 RMK A01 T00641038  RH  048%=      5-min Rain = 0
KCR2 171613Z 22001KT 07/M04 A3021 RMK A01 T00651038  RH  048%=      5-min Rain = 0
KCR2 171614Z 21001KT 06/M04 A3021 RMK A01 T00631041  RH  047%=      5-min Rain = 0
KCR2 171615Z 23001KT 06/M04 A3021 RMK A01 T00611041  RH  048%=      5-min Rain = 0
KCR2 171616Z 20001KT 06/M04 A3021 RMK A01 T00601040  RH  049%=      5-min Rain = 0
KCR2 171617Z 19002KT 06/M04 A3021 RMK A01 T00591040  RH  049%=      5-min Rain = 0
KCR2 171618Z 19002KT 06/M04 A3021 RMK A01 T00601037  RH  050%=      5-min Rain = 0
KCR2 171619Z 19002KT 06/M04 A3021 RMK A01 T00601041  RH  048%=      5-min Rain = 0
KCR2 171620Z 19001KT 06/M04 A3021 RMK A01 T00581043  RH  048%=      5-min Rain = 0
KCR2 171621Z 20001KT 06/M04 A3021 RMK A01 T00581042  RH  049%=      5-min Rain = 0
KCR2 171622Z 21001KT 06/M04 A3021 RMK A01 T00591040  RH  049%=      5-min Rain = 0
KCR2 171623Z 20000KT 06/M04 A3021 RMK A01 T00611041  RH  048%=      5-min Rain = 0
KCR2 171624Z 20000KT 06/M04 A3021 RMK A01 T00631035  RH  049%=      5-min Rain = 0
KCR2 171625Z 00000KT 07/M03 A3021 RMK A01 T00661033  RH  049%=      5-min Rain = 0
KCR2 171626Z 03000KT 07/M03 A3021 RMK A01 T00681033  RH  048%=      5-min Rain = 0
KCR2 171627Z 18000KT 07/M04 A3021 RMK A01 T00691038  RH  046%=      5-min Rain = 0
KCR2 171628Z 20000KT 07/M04 A3021 RMK A01 T00691039  RH  046%=      5-min Rain = 0
KCR2 171629Z 10001KT 07/M04 A3021 RMK A01 T00701038  RH  046%=      5-min Rain = 0
KCR2 171630Z 09001KT 07/M04 A3021 RMK A01 T00721035  RH  047%=      5-min Rain = 0
KCR2 171631Z 17001KT 07/M03 A3021 RMK A01 T00741033  RH  047%=      5-min Rain = 0
KCR2 171632Z 19002KT 08/M04 A3021 RMK A01 T00751035  RH  046%=      5-min Rain = 0
KCR2 171633Z 17001KT 08/M04 A3021 RMK A01 T00751037  RH  045%=      5-min Rain = 0
KCR2 171634Z 16001KT 08/M04 A3021 RMK A01 T00751036  RH  045%=      5-min Rain = 0
KCR2 171635Z 18002KT 08/M04 A3021 RMK A01 T00751037  RH  045%=      5-min Rain = 0
KCR2 171636Z 18002KT 08/M04 A302 RMK A01 T00751038  RH  044%=      5-min Rain = 0
KCR2 171637Z 20002KT 08/M04 A302 RMK A01 T00751036  RH  045%=      5-min Rain = 0
KCR2 171638Z 17001KT 08/M04 A302 RMK A01 T00751037  RH  045%=      5-min Rain = 0
KCR2 171639Z 20001KT 08/M04 A302 RMK A01 T00751039  RH  044%=      5-min Rain = 0
KCR2 171640Z 16001KT 08/M04 A302 RMK A01 T00761036  RH  045%=      5-min Rain = 0
KCR2 171641Z 14001KT 08/M04 A302 RMK A01 T00781035  RH  044%=      5-min Rain = 0
KCR2 171642Z 00000KT 08/M04 A302 RMK A01 T00811037  RH  043%=      5-min Rain = 0
KCR2 171643Z 14001KT 08/M04 A302 RMK A01 T00821037  RH  043%=      5-min Rain = 0
KCR2 171644Z 13001KT 08/M04 A302 RMK A01 T00831037  RH  043%=      5-min Rain = 0
KCR2 171645Z 16001KT 09/M04 A302 RMK A01 T00851036  RH  042%=      5-min Rain = 0
KCR2 171646Z 26000KT 09/M04 A302 RMK A01 T00871037  RH  041%=      5-min Rain = 0
KCR2 171647Z 00000KT 09/M04 A3021 RMK A01 T00901036  RH  041%=      5-min Rain = 0
KCR2 171648Z 01000KT 09/M03 A3021 RMK A01 T00911033  RH  041%=      5-min Rain = 0
KCR2 171649Z 02001KT 09/M03 A3021 RMK A01 T00921034  RH  041%=      5-min Rain = 0
KCR2 171650Z 00002KT 09/M04 A3021 RMK A01 T00911037  RH  040%=      5-min Rain = 0
KCR2 171651Z 02001KT 09/M04 A302 RMK A01 T00881038  RH  041%=      5-min Rain = 0
KCR2 171652Z 03001KT 09/M04 A302 RMK A01 T00861039  RH  041%=      5-min Rain = 0
KCR2 171653Z 05002KT 09/M04 A302 RMK A01 T00861038  RH  041%=      5-min Rain = 0
KCR2 171654Z 05004KT 09/M04 A302 RMK A01 T00871039  RH  041%=      5-min Rain = 0
KCR2 171655Z 06003KT 09/M04 A302 RMK A01 T00861041  RH  041%=      5-min Rain = 0
KCR2 171656Z 07002KT 09/M04 A302 RMK A01 T00861043  RH  040%=      5-min Rain = 0
KCR2 171657Z 05004KT 09/M04 A302 RMK A01 T00861041  RH  040%=      5-min Rain = 0
KCR2 171658Z 06004KT 09/M04 A302 RMK A01 T00871040  RH  041%=      5-min Rain = 0
KCR2 171659Z 06002KT 09/M04 A302 RMK A01 T00861042  RH  040%=      5-min Rain = 0
KCR2 171700Z 07002KT 09/M04 A302 RMK A01 T00861041  RH  041%=      5-min Rain = 0
KCR2 171701Z 10003KT 09/M04 A302 RMK A01 T00871038  RH  041%=      5-min Rain = 0
KCR2 171702Z 09003KT 09/M04 A302 RMK A01 T00881037  RH  041%=      5-min Rain = 0
KCR2 171703Z 10003KT 09/M04 A302 RMK A01 T00891038  RH  040%=      5-min Rain = 0
KCR2 171704Z 08003KT 09/M04 A302 RMK A01 T00901039  RH  040%=      5-min Rain = 0
KCR2 171705Z 09004KT 09/M04 A302 RMK A01 T00901039  RH  040%=      5-min Rain = 0
KCR2 171706Z 10005KT 09/M04 A302 RMK A01 T00911037  RH  040%=      5-min Rain = 0
KCR2 171707Z 09005KT 09/M04 A302 RMK A01 T00911040  RH  039%=      5-min Rain = 0
KCR2 171708Z 09004KT 09/M04 A302 RMK A01 T00911041  RH  039%=      5-min Rain = 0
KCR2 171709Z 10003KT 09/M04 A302 RMK A01 T00911041  RH  039%=      5-min Rain = 0
KCR2 171710Z 12004KT 09/M04 A3019 RMK A01 T00911039  RH  040%=      5-min Rain = 0
KCR2 171711Z 13003KT 09/M04 A3019 RMK A01 T00921041  RH  039%=      5-min Rain = 0
KCR2 171712Z 08002KT 09/M04 A3019 RMK A01 T00931041  RH  038%=      5-min Rain = 0
KCR2 171713Z 05002KT 09/M04 A3019 RMK A01 T00931041  RH  038%=      5-min Rain = 0
KCR2 171714Z 06001KT 09/M04 A302 RMK A01 T00941038  RH  039%=      5-min Rain = 0
KCR2 171715Z 12000KT 10/M04 A3019 RMK A01 T00951038  RH  039%=      5-min Rain = 0
KCR2 171716Z 09002KT 10/M04 A3019 RMK A01 T00961038  RH  039%=      5-min Rain = 0
KCR2 171717Z 08002KT 10/M04 A3019 RMK A01 T00971040  RH  038%=      5-min Rain = 0
KCR2 171718Z 09002KT 10/M04 A3019 RMK A01 T00971040  RH  038%=      5-min Rain = 0
KCR2 171719Z 08002KT 10/M04 A3019 RMK A01 T00981038  RH  038%=      5-min Rain = 0
KCR2 171720Z 08002KT 10/M04 A3019 RMK A01 T00981039  RH  038%=      5-min Rain = 0
KCR2 171721Z 07000KT 10/M04 A3019 RMK A01 T00971040  RH  038%=      5-min Rain = 0
KCR2 171722Z 06002KT 10/M04 A3019 RMK A01 T00981039  RH  038%=      5-min Rain = 0
KCR2 171723Z 07002KT 10/M04 A3019 RMK A01 T00991038  RH  038%=      5-min Rain = 0
KCR2 171724Z 06001KT 10/M04 A3019 RMK A01 T01001036  RH  038%=      5-min Rain = 0
KCR2 171725Z 10001KT 10/M04 A3019 RMK A01 T01021038  RH  037%=      5-min Rain = 0
KCR2 171726Z 10003KT 10/M04 A3019 RMK A01 T01041036  RH  037%=      5-min Rain = 0
KCR2 171727Z 10004KT 10/M04 A3019 RMK A01 T01041040  RH  036%=      5-min Rain = 0
KCR2 171728Z 09003KT 10/M04 A3019 RMK A01 T01041041  RH  036%=      5-min Rain = 0
KCR2 171729Z 07003KT 10/M04 A3019 RMK A01 T01031042  RH  036%=      5-min Rain = 0
KCR2 171730Z 08002KT 10/M04 A3019 RMK A01 T01041041  RH  036%=      5-min Rain = 0
KCR2 171731Z 09001KT 10/M04 A3019 RMK A01 T01031042  RH  036%=      5-min Rain = 0
KCR2 171732Z 10001KT 10/M04 A3019 RMK A01 T01041042  RH  036%=      5-min Rain = 0
KCR2 171733Z 08002KT 11/M04 A3019 RMK A01 T01051040  RH  036%=      5-min Rain = 0
KCR2 171734Z 08001KT 11/M04 A3018 RMK A01 T01071038  RH  036%=      5-min Rain = 0
KCR2 171735Z 15001KT 11/M04 A3018 RMK A01 T01081037  RH  036%=      5-min Rain = 0
KCR2 171736Z 15001KT 11/M04 A3018 RMK A01 T01101040  RH  035%=      5-min Rain = 0
KCR2 171737Z 18000KT 11/M04 A3018 RMK A01 T01121040  RH  034%=      5-min Rain = 0
KCR2 171738Z 14001KT 11/M04 A3018 RMK A01 T01141040  RH  034%=      5-min Rain = 0
KCR2 171739Z 14002KT 12/M04 A3018 RMK A01 T01151041  RH  033%=      5-min Rain = 0
KCR2 171740Z 13003KT 12/M04 A3018 RMK A01 T01161044  RH  032%=      5-min Rain = 0
KCR2 171741Z 09004KT 11/M04 A3018 RMK A01 T01141044  RH  033%=      5-min Rain = 0
KCR2 171742Z 10003KT 11/M05 A3018 RMK A01 T01121045  RH  033%=      5-min Rain = 0
KCR2 171743Z 10004KT 11/M04 A3018 RMK A01 T01111044  RH  033%=      5-min Rain = 0
KCR2 171744Z 13002KT 11/M05 A3018 RMK A01 T01111045  RH  033%=      5-min Rain = 0
KCR2 171745Z 10002KT 11/M05 A3018 RMK A01 T01111047  RH  033%=      5-min Rain = 0
KCR2 171746Z 11000KT 11/M05 A3018 RMK A01 T01121045  RH  033%=      5-min Rain = 0
KCR2 171747Z 33000KT 11/M04 A3018 RMK A01 T01131044  RH  033%=      5-min Rain = 0
KCR2 171748Z 05001KT 11/M04 A3018 RMK A01 T01141040  RH  034%=      5-min Rain = 0
KCR2 171749Z 05001KT 12/M04 A3018 RMK A01 T01161043  RH  033%=      5-min Rain = 0
KCR2 171750Z 33001KT 12/M05 A3017 RMK A01 T01171046  RH  032%=      5-min Rain = 0
KCR2 171751Z 33000KT 12/M04 A3017 RMK A01 T01191044  RH  032%=      5-min Rain = 0
KCR2 171752Z 01000KT 12/M04 A3017 RMK A01 T01191041  RH  032%=      5-min Rain = 0
KCR2 171753Z 36000KT 12/M04 A3017 RMK A01 T01211039  RH  033%=      5-min Rain = 0
KCR2 171754Z 05001KT 12/M04 A3017 RMK A01 T01211044  RH  031%=      5-min Rain = 0
KCR2 171755Z 19001KT 12/M05 A3017 RMK A01 T01211045  RH  031%=      5-min Rain = 0
KCR2 171756Z 21001KT 12/M05 A3017 RMK A01 T01201047  RH  031%=      5-min Rain = 0
KCR2 171757Z 20001KT 12/M05 A3017 RMK A01 T01191049  RH  031%=      5-min Rain = 0
KCR2 171758Z 20001KT 12/M05 A3017 RMK A01 T01191049  RH  031%=      5-min Rain = 0
KCR2 171759Z 21001KT 12/M05 A3017 RMK A01 T01191048  RH  031%=      5-min Rain = 0
KCR2 171800Z 28000KT 12/M05 A3017 RMK A01 T01201052  RH  030%=      5-min Rain = 0
KCR2 171801Z 28001KT 12/M06 A3017 RMK A01 T01201055  RH  029%=      5-min Rain = 0
KCR2 171802Z 29000KT 12/M05 A3016 RMK A01 T01201051  RH  030%=      5-min Rain = 0
KCR2 171803Z 29000KT 12/M05 A3016 RMK A01 T01191053  RH  030%=      5-min Rain = 0
KCR2 171804Z 27000KT 12/M05 A3016 RMK A01 T01211048  RH  030%=      5-min Rain = 0
KCR2 171805Z 35000KT 12/M05 A3016 RMK A01 T01221048  RH  030%=      5-min Rain = 0
KCR2 171806Z 32001KT 12/M05 A3016 RMK A01 T01221050  RH  030%=      5-min Rain = 0
KCR2 171807Z 23001KT 12/M05 A3016 RMK A01 T01221047  RH  030%=      5-min Rain = 0
KCR2 171808Z 21003KT 12/M05 A3016 RMK A01 T01231046  RH  030%=      5-min Rain = 0
KCR2 171809Z 22002KT 12/M05 A3016 RMK A01 T01241050  RH  029%=      5-min Rain = 0
KCR2 171810Z 22004KT 12/M05 A3016 RMK A01 T01231050  RH  029%=      5-min Rain = 0
KCR2 171811Z 22003KT 12/M05 A3016 RMK A01 T01231051  RH  029%=      5-min Rain = 0
KCR2 171812Z 24005KT 12/M05 A3016 RMK A01 T01221052  RH  029%=      5-min Rain = 0
KCR2 171813Z 21004KT 12/M06 A3016 RMK A01 T01201055  RH  029%=      5-min Rain = 0
KCR2 171814Z 20002KT 12/M06 A3016 RMK A01 T01201055  RH  029%=      5-min Rain = 0
KCR2 171815Z 24003KT 12/M05 A3016 RMK A01 T01231052  RH  029%=      5-min Rain = 0
KCR2 171816Z 24004KT 12/M05 A3016 RMK A01 T01231054  RH  029%=      5-min Rain = 0
KCR2 171817Z 23003KT 12/M06 A3016 RMK A01 T01221058  RH  028%=      5-min Rain = 0
KCR2 171818Z 23003KT 12/M06 A3016 RMK A01 T01211060  RH  028%=      5-min Rain = 0
KCR2 171819Z 26003KT 12/M06 A3016 RMK A01 T01211059  RH  028%=      5-min Rain = 0
KCR2 171820Z 30002KT 12/M06 A3016 RMK A01 T01201058  RH  028%=      5-min Rain = 0
KCR2 171821Z 30002KT 12/M06 A3015 RMK A01 T01201057  RH  029%=      5-min Rain = 0
KCR2 171822Z 25002KT 12/M05 A3015 RMK A01 T01201054  RH  029%=      5-min Rain = 0
KCR2 171823Z 24002KT 12/M05 A3015 RMK A01 T01221053  RH  029%=      5-min Rain = 0
KCR2 171824Z 25002KT 12/M06 A3015 RMK A01 T01231057  RH  028%=      5-min Rain = 0
KCR2 171825Z 24002KT 12/M06 A3015 RMK A01 T01231057  RH  028%=      5-min Rain = 0
KCR2 171826Z 25002KT 12/M06 A3015 RMK A01 T01231058  RH  028%=      5-min Rain = 0
KCR2 171827Z 25002KT 12/M06 A3015 RMK A01 T01231058  RH  028%=      5-min Rain = 0
KCR2 171828Z 27002KT 12/M06 A3015 RMK A01 T01241056  RH  028%=      5-min Rain = 0
KCR2 171829Z 30002KT 12/M06 A3015 RMK A01 T01241060  RH  027%=      5-min Rain = 0
KCR2 171830Z 33001KT 12/M06 A3014 RMK A01 T01231060  RH  027%=      5-min Rain = 0
KCR2 171831Z 32002KT 12/M06 A3014 RMK A01 T01231061  RH  027%=      5-min Rain = 0
KCR2 171832Z 33001KT 12/M06 A3014 RMK A01 T01231061  RH  027%=      5-min Rain = 0
KCR2 171833Z 01000KT 12/M06 A3014 RMK A01 T01241062  RH  027%=      5-min Rain = 0
KCR2 171834Z 34001KT 13/M06 A3014 RMK A01 T01251059  RH  027%=      5-min Rain = 0
KCR2 171835Z 33001KT 13/M06 A3014 RMK A01 T01261060  RH  027%=      5-min Rain = 0
KCR2 171836Z 33001KT 13/M06 A3014 RMK A01 T01281061  RH  026%=      5-min Rain = 0
KCR2 171837Z 34001KT 13/M06 A3014 RMK A01 T01271062  RH  026%=      5-min Rain = 0
KCR2 171838Z 36001KT 13/M06 A3014 RMK A01 T01271062  RH  026%=      5-min Rain = 0
KCR2 171839Z 35000KT 13/M06 A3014 RMK A01 T01271061  RH  026%=      5-min Rain = 0
KCR2 171840Z 01001KT 13/M06 A3014 RMK A01 T01281062  RH  026%=      5-min Rain = 0
KCR2 171841Z 31000KT 13/M06 A3014 RMK A01 T01281060  RH  026%=      5-min Rain = 0
KCR2 171842Z 20000KT 13/M06 A3014 RMK A01 T01301060  RH  026%=      5-min Rain = 0
KCR2 171843Z 15000KT 13/M06 A3014 RMK A01 T01331062  RH  025%=      5-min Rain = 0
KCR2 171844Z 14001KT 13/M06 A3014 RMK A01 T01341063  RH  025%=      5-min Rain = 0
KCR2 171845Z 11000KT 14/M06 A3014 RMK A01 T01351062  RH  025%=      5-min Rain = 0
KCR2 171846Z 12001KT 14/M06 A3014 RMK A01 T01361064  RH  024%=      5-min Rain = 0
KCR2 171847Z 11001KT 14/M06 A3014 RMK A01 T01361063  RH  025%=      5-min Rain = 0
KCR2 171848Z 11000KT 14/M06 A3014 RMK A01 T01351062  RH  025%=      5-min Rain = 0
KCR2 171849Z 15000KT 14/M06 A3014 RMK A01 T01351061  RH  025%=      5-min Rain = 0
KCR2 171850Z 24001KT 14/M06 A3013 RMK A01 T01371058  RH  025%=      5-min Rain = 0
KCR2 171851Z 26001KT 14/M06 A3013 RMK A01 T01381062  RH  025%=      5-min Rain = 0
KCR2 171852Z 26001KT 14/M06 A3013 RMK A01 T01361064  RH  024%=      5-min Rain = 0
KCR2 171853Z 28002KT 13/M07 A3013 RMK A01 T01341065  RH  024%=      5-min Rain = 0
KCR2 171854Z 26002KT 13/M07 A3013 RMK A01 T01321065  RH  025%=      5-min Rain = 0
KCR2 171855Z 25003KT 13/M06 A3013 RMK A01 T01301064  RH  025%=      5-min Rain = 0
KCR2 171856Z 24003KT 13/M06 A3013 RMK A01 T01291064  RH  026%=      5-min Rain = 0
KCR2 171857Z 23002KT 13/M06 A3013 RMK A01 T01291062  RH  026%=      5-min Rain = 0
KCR2 171858Z 17001KT 13/M06 A3013 RMK A01 T01311060  RH  026%=      5-min Rain = 0
KCR2 171859Z 11002KT 14/M06 A3013 RMK A01 T01351055  RH  026%=      5-min Rain = 0
KCR2 171900Z 12002KT 14/M06 A3013 RMK A01 T01371058  RH  025%=      5-min Rain = 0
KCR2 171901Z 09003KT 14/M06 A3013 RMK A01 T01361059  RH  025%=      5-min Rain = 0
KCR2 171902Z 11003KT 13/M06 A3013 RMK A01 T01341058  RH  026%=      5-min Rain = 0
KCR2 171903Z 09004KT 13/M06 A3013 RMK A01 T01341056  RH  026%=      5-min Rain = 0
KCR2 171904Z 07002KT 13/M06 A3013 RMK A01 T01341058  RH  026%=      5-min Rain = 0
KCR2 171905Z 11001KT 13/M06 A3013 RMK A01 T01341057  RH  026%=      5-min Rain = 0
KCR2 171906Z 12002KT 14/M06 A3013 RMK A01 T01361056  RH  026%=      5-min Rain = 0
KCR2 171907Z 10002KT 14/M05 A3013 RMK A01 T01381052  RH  026%=      5-min Rain = 0
KCR2 171908Z 00003KT 14/M06 A3013 RMK A01 T01401057  RH  025%=      5-min Rain = 0
KCR2 171909Z 02004KT 14/M06 A3013 RMK A01 T01391059  RH  025%=      5-min Rain = 0
KCR2 171910Z 02005KT 14/M06 A3013 RMK A01 T01381057  RH  025%=      5-min Rain = 0
KCR2 171911Z 02004KT 14/M06 A3013 RMK A01 T01381063  RH  024%=      5-min Rain = 0
KCR2 171912Z 04003KT 14/M06 A3013 RMK A01 T01361064  RH  024%=      5-min Rain = 0
KCR2 171913Z 05002KT 14/M06 A3013 RMK A01 T01351061  RH  025%=      5-min Rain = 0
KCR2 171914Z 00004KT 14/M06 A3013 RMK A01 T01351062  RH  025%=      5-min Rain = 0
KCR2 171915Z 34003KT 14/M06 A3013 RMK A01 T01351062  RH  025%=      5-min Rain = 0
KCR2 171916Z 33001KT 13/M06 A3013 RMK A01 T01341063  RH  025%=      5-min Rain = 0
KCR2 171917Z 33001KT 13/M06 A3013 RMK A01 T01341063  RH  025%=      5-min Rain = 0
KCR2 171918Z 26000KT 14/M06 A3013 RMK A01 T01361060  RH  025%=      5-min Rain = 0
KCR2 171919Z 01001KT 14/M06 A3013 RMK A01 T01381058  RH  025%=      5-min Rain = 0
KCR2 171920Z 05002KT 14/M06 A3013 RMK A01 T01391058  RH  025%=      5-min Rain = 0
KCR2 171921Z 04002KT 14/M06 A3013 RMK A01 T01401055  RH  026%=      5-min Rain = 0
KCR2 171922Z 02003KT 14/M06 A3013 RMK A01 T01411056  RH  025%=      5-min Rain = 0
KCR2 171923Z 03001KT 14/M06 A3013 RMK A01 T01401060  RH  024%=      5-min Rain = 0
KCR2 171924Z 10001KT 14/M06 A3013 RMK A01 T01401061  RH  024%=      5-min Rain = 0
KCR2 171925Z 03002KT 14/M06 A3012 RMK A01 T01411055  RH  025%=      5-min Rain = 0
KCR2 171926Z 03003KT 14/M06 A3012 RMK A01 T01421058  RH  025%=      5-min Rain = 0
KCR2 171927Z 05002KT 14/M06 A3012 RMK A01 T01411060  RH  024%=      5-min Rain = 0
KCR2 171928Z 05001KT 14/M06 A3012 RMK A01 T01401058  RH  025%=      5-min Rain = 0
KCR2 171929Z 08002KT 14/M06 A3012 RMK A01 T01411056  RH  025%=      5-min Rain = 0
KCR2 171930Z 06002KT 14/M06 A3012 RMK A01 T01411059  RH  025%=      5-min Rain = 0
KCR2 171931Z 04001KT 14/M06 A3012 RMK A01 T01411060  RH  024%=      5-min Rain = 0
KCR2 171932Z 05000KT 14/M06 A3012 RMK A01 T01411063  RH  024%=      5-min Rain = 0
KCR2 171933Z 36001KT 14/M06 A3012 RMK A01 T01411060  RH  024%=      5-min Rain = 0
KCR2 171934Z 00003KT 14/M06 A3012 RMK A01 T01421058  RH  025%=      5-min Rain = 0
KCR2 171935Z 35003KT 14/M06 A3012 RMK A01 T01421060  RH  024%=      5-min Rain = 0
KCR2 171936Z 35004KT 14/M06 A3012 RMK A01 T01421059  RH  024%=      5-min Rain = 0
KCR2 171937Z 36004KT 14/M06 A3012 RMK A01 T01421058  RH  024%=      5-min Rain = 0
KCR2 171938Z 00002KT 14/M06 A3012 RMK A01 T01421058  RH  024%=      5-min Rain = 0
KCR2 171939Z 33001KT 14/M06 A3012 RMK A01 T01411059  RH  024%=      5-min Rain = 0
KCR2 171940Z 32000KT 14/M06 A3012 RMK A01 T01411058  RH  025%=      5-min Rain = 0
KCR2 171941Z 32001KT 14/M06 A3011 RMK A01 T01431056  RH  025%=      5-min Rain = 0
KCR2 171942Z 33003KT 15/M05 A3011 RMK A01 T01461053  RH  025%=      5-min Rain = 0
KCR2 171943Z 33004KT 15/M06 A3011 RMK A01 T01461056  RH  024%=      5-min Rain = 0
KCR2 171944Z 32003KT 15/M06 A3011 RMK A01 T01451059  RH  024%=      5-min Rain = 0
KCR2 171945Z 31002KT 14/M06 A3011 RMK A01 T01441060  RH  024%=      5-min Rain = 0
KCR2 171946Z 35001KT 14/M06 A3011 RMK A01 T01431063  RH  024%=      5-min Rain = 0
KCR2 171947Z 21000KT 14/M06 A3011 RMK A01 T01421061  RH  024%=      5-min Rain = 0
KCR2 171948Z 33003KT 14/M06 A3011 RMK A01 T01441060  RH  024%=      5-min Rain = 0
KCR2 171949Z 33002KT 15/M06 A3011 RMK A01 T01451060  RH  024%=      5-min Rain = 0
KCR2 171950Z 35002KT 15/M06 A3011 RMK A01 T01451059  RH  024%=      5-min Rain = 0
KCR2 171951Z 01001KT 15/M06 A3011 RMK A01 T01451060  RH  024%=      5-min Rain = 0
KCR2 171952Z 02002KT 15/M06 A3011 RMK A01 T01451061  RH  024%=      5-min Rain = 0
KCR2 171953Z 35002KT 15/M06 A3011 RMK A01 T01451059  RH  024%=      5-min Rain = 0
KCR2 171954Z 32002KT 14/M06 A301 RMK A01 T01441060  RH  024%=      5-min Rain = 0
KCR2 171955Z 31001KT 15/M06 A301 RMK A01 T01451060  RH  024%=      5-min Rain = 0
KCR2 171956Z 32001KT 15/M06 A301 RMK A01 T01451060  RH  024%=      5-min Rain = 0
KCR2 171957Z 29001KT 15/M06 A301 RMK A01 T01451059  RH  024%=      5-min Rain = 0
KCR2 171958Z 28000KT 15/M06 A301 RMK A01 T01461060  RH  024%=      5-min Rain = 0
KCR2 171959Z 00000KT 15/M06 A301 RMK A01 T01471060  RH  023%=      5-min Rain = 0
KCR2 172000Z 22000KT 15/M06 A301 RMK A01 T01491057  RH  024%=      5-min Rain = 0
KCR2 172001Z 14000KT 15/M06 A301 RMK A01 T01531055  RH  023%=      5-min Rain = 0
KCR2 172002Z 15003KT 16/M06 A301 RMK A01 T01561056  RH  023%=      5-min Rain = 0
KCR2 172003Z 15003KT 15/M06 A301 RMK A01 T01541059  RH  022%=      5-min Rain = 0
KCR2 172004Z 14002KT 15/M06 A301 RMK A01 T01521061  RH  023%=      5-min Rain = 0
KCR2 172005Z 16003KT 15/M06 A301 RMK A01 T01501061  RH  023%=      5-min Rain = 0
KCR2 172006Z 16002KT 15/M06 A301 RMK A01 T01501061  RH  023%=      5-min Rain = 0
KCR2 172007Z 16003KT 15/M06 A301 RMK A01 T01491058  RH  023%=      5-min Rain = 0
KCR2 172008Z 15002KT 15/M06 A301 RMK A01 T01511058  RH  023%=      5-min Rain = 0
KCR2 172009Z 14001KT 15/M06 A301 RMK A01 T01511061  RH  023%=      5-min Rain = 0
KCR2 172010Z 00000KT 15/M06 A301 RMK A01 T01511061  RH  023%=      5-min Rain = 0
KCR2 172011Z 00000KT 15/M06 A3009 RMK A01 T01521061  RH  023%=      5-min Rain = 0
KCR2 172012Z 15001KT 15/M06 A3009 RMK A01 T01531060  RH  023%=      5-min Rain = 0
KCR2 172013Z 14002KT 15/M06 A3009 RMK A01 T01541058  RH  023%=      5-min Rain = 0
KCR2 172014Z 11001KT 16/M06 A3009 RMK A01 T01561056  RH  023%=      5-min Rain = 0
KCR2 172015Z 12001KT 16/M06 A3009 RMK A01 T01561060  RH  022%=      5-min Rain = 0
KCR2 172016Z 08003KT 16/M06 A3009 RMK A01 T01561061  RH  022%=      5-min Rain = 0
KCR2 172017Z 07003KT 16/M06 A3009 RMK A01 T01551060  RH  022%=      5-min Rain = 0
KCR2 172018Z 07002KT 15/M06 A3009 RMK A01 T01521061  RH  022%=      5-min Rain = 0
KCR2 172019Z 09002KT 15/M06 A3009 RMK A01 T01511062  RH  022%=      5-min Rain = 0
KCR2 172020Z 11002KT 15/M06 A3009 RMK A01 T01501061  RH  023%=      5-min Rain = 0
KCR2 172021Z 07002KT 15/M06 A3009 RMK A01 T01501061  RH  023%=      5-min Rain = 0
KCR2 172022Z 07001KT 15/M06 A3009 RMK A01 T01511060  RH  023%=      5-min Rain = 0
KCR2 172023Z 04002KT 15/M06 A3009 RMK A01 T01521060  RH  023%=      5-min Rain = 0
KCR2 172024Z 02003KT 15/M06 A3009 RMK A01 T01531058  RH  023%=      5-min Rain = 0
KCR2 172025Z 03001KT 15/M06 A3009 RMK A01 T01531061  RH  022%=      5-min Rain = 0
KCR2 172026Z 00002KT 15/M06 A3009 RMK A01 T01531060  RH  023%=      5-min Rain = 0
KCR2 172027Z 34003KT 15/M06 A3009 RMK A01 T01531060  RH  022%=      5-min Rain = 0
KCR2 172028Z 32004KT 15/M06 A3009 RMK A01 T01531061  RH  022%=      5-min Rain = 0
KCR2 172029Z 32003KT 15/M06 A3009 RMK A01 T01531063  RH  022%=      5-min Rain = 0
KCR2 172030Z 32003KT 15/M06 A3009 RMK A01 T01521062  RH  022%=      5-min Rain = 0
KCR2 172031Z 31001KT 15/M06 A3008 RMK A01 T01521061  RH  023%=      5-min Rain = 0
KCR2 172032Z 33002KT 15/M06 A3008 RMK A01 T01531058  RH  023%=      5-min Rain = 0
KCR2 172033Z 33003KT 15/M06 A3008 RMK A01 T01541059  RH  022%=      5-min Rain = 0
KCR2 172034Z 01001KT 15/M06 A3008 RMK A01 T01541060  RH  022%=      5-min Rain = 0
KCR2 172035Z 07003KT 15/M06 A3008 RMK A01 T01541058  RH  023%=      5-min Rain = 0
KCR2 172036Z 06004KT 16/M06 A3008 RMK A01 T01551058  RH  023%=      5-min Rain = 0
KCR2 172037Z 07003KT 16/M06 A3008 RMK A01 T01551061  RH  022%=      5-min Rain = 0
KCR2 172038Z 05004KT 15/M06 A3008 RMK A01 T01541062  RH  022%=      5-min Rain = 0
KCR2 172039Z 03003KT 15/M06 A3008 RMK A01 T01531061  RH  022%=      5-min Rain = 0
KCR2 172040Z 04002KT 15/M06 A3008 RMK A01 T01531062  RH  022%=      5-min Rain = 0
KCR2 172041Z 01004KT 15/M06 A3008 RMK A01 T01541060  RH  022%=      5-min Rain = 0
KCR2 172042Z 01003KT 15/M06 A3008 RMK A01 T01541063  RH  022%=      5-min Rain = 0
KCR2 172043Z 00000KT 15/M06 A3008 RMK A01 T01541064  RH  022%=      5-min Rain = 0
KCR2 172044Z 24001KT 15/M06 A3008 RMK A01 T01541063  RH  022%=      5-min Rain = 0
KCR2 172045Z 25001KT 16/M06 A3008 RMK A01 T01561062  RH  022%=      5-min Rain = 0
KCR2 172046Z 29001KT 16/M06 A3008 RMK A01 T01581059  RH  022%=      5-min Rain = 0
KCR2 172047Z 34001KT 16/M06 A3008 RMK A01 T01611057  RH  022%=      5-min Rain = 0
KCR2 172048Z 34002KT 16/M06 A3008 RMK A01 T01621056  RH  022%=      5-min Rain = 0
KCR2 172049Z 33002KT 16/M06 A3008 RMK A01 T01621058  RH  022%=      5-min Rain = 0
KCR2 172050Z 33002KT 16/M06 A3008 RMK A01 T01611062  RH  021%=      5-min Rain = 0
KCR2 172051Z 34001KT 16/M06 A3008 RMK A01 T01591063  RH  021%=      5-min Rain = 0
KCR2 172052Z 32001KT 16/M06 A3008 RMK A01 T01581064  RH  021%=      5-min Rain = 0
KCR2 172053Z 24001KT 16/M07 A3008 RMK A01 T01581065  RH  021%=      5-min Rain = 0
KCR2 172054Z 28000KT 16/M06 A3007 RMK A01 T01601061  RH  021%=      5-min Rain = 0
KCR2 172055Z 00000KT 16/M06 A3007 RMK A01 T01621062  RH  021%=      5-min Rain = 0
KCR2 172056Z 21002KT 16/M06 A3007 RMK A01 T01631063  RH  021%=      5-min Rain = 0
KCR2 172057Z 19003KT 16/M06 A3007 RMK A01 T01631061  RH  021%=      5-min Rain = 0
KCR2 172058Z 20004KT 16/M06 A3007 RMK A01 T01621060  RH  021%=      5-min Rain = 0
KCR2 172059Z 19004KT 16/M06 A3007 RMK A01 T01621061  RH  021%=      5-min Rain = 0
KCR2 172100Z 19004KT 16/M06 A3007 RMK A01 T01601063  RH  021%=      5-min Rain = 0
KCR2 172101Z 22003KT 16/M06 A3007 RMK A01 T01581062  RH  021%=      5-min Rain = 0
KCR2 172102Z 23002KT 16/M06 A3007 RMK A01 T01581064  RH  021%=      5-min Rain = 0
KCR2 172103Z 20003KT 16/M06 A3007 RMK A01 T01581058  RH  022%=      5-min Rain = 0
KCR2 172104Z 19003KT 16/M06 A3007 RMK A01 T01601061  RH  021%=      5-min Rain = 0
KCR2 172105Z 21002KT 16/M06 A3007 RMK A01 T01611062  RH  021%=      5-min Rain = 0
KCR2 172106Z 22002KT 16/M06 A3007 RMK A01 T01611061  RH  021%=      5-min Rain = 0
KCR2 172107Z 19004KT 16/M06 A3007 RMK A01 T01621060  RH  021%=      5-min Rain = 0
KCR2 172108Z 19003KT 16/M06 A3007 RMK A01 T01621062  RH  021%=      5-min Rain = 0
KCR2 172109Z 21002KT 16/M06 A3007 RMK A01 T01601064  RH  021%=      5-min Rain = 0
KCR2 172110Z 19002KT 16/M06 A3007 RMK A01 T01601063  RH  021%=      5-min Rain = 0
KCR2 172111Z 17002KT 16/M06 A3007 RMK A01 T01601064  RH  021%=      5-min Rain = 0
KCR2 172112Z 11003KT 16/M06 A3007 RMK A01 T01601063  RH  021%=      5-min Rain = 0
KCR2 172113Z 10003KT 16/M06 A3007 RMK A01 T01601059  RH  022%=      5-min Rain = 0
KCR2 172114Z 10001KT 16/M06 A3007 RMK A01 T01611061  RH  021%=      5-min Rain = 0
KCR2 172115Z 13001KT 16/M06 A3007 RMK A01 T01611061  RH  021%=      5-min Rain = 0
KCR2 172116Z 13000KT 16/M06 A3007 RMK A01 T01621059  RH  021%=      5-min Rain = 0
KCR2 172117Z 14000KT 16/M06 A3007 RMK A01 T01621063  RH  021%=      5-min Rain = 0
KCR2 172118Z 10002KT 16/M06 A3007 RMK A01 T01621062  RH  021%=      5-min Rain = 0
KCR2 172119Z 08002KT 16/M06 A3006 RMK A01 T01631060  RH  021%=      5-min Rain = 0
KCR2 172120Z 06002KT 16/M06 A3006 RMK A01 T01631060  RH  021%=      5-min Rain = 0
KCR2 172121Z 05001KT 16/M06 A3007 RMK A01 T01631062  RH  021%=      5-min Rain = 0
KCR2 172122Z 11001KT 16/M06 A3007 RMK A01 T01631063  RH  021%=      5-min Rain = 0
KCR2 172123Z 14003KT 16/M06 A3006 RMK A01 T01631062  RH  021%=      5-min Rain = 0
KCR2 172124Z 16002KT 16/M06 A3006 RMK A01 T01631061  RH  021%=      5-min Rain = 0
KCR2 172125Z 15004KT 16/M06 A3006 RMK A01 T01641061  RH  021%=      5-min Rain = 0
KCR2 172126Z 12004KT 16/M06 A3007 RMK A01 T01631061  RH  021%=      5-min Rain = 0
KCR2 172127Z 11004KT 16/M06 A3007 RMK A01 T01621060  RH  021%=      5-min Rain = 0
KCR2 172128Z 14004KT 16/M06 A3007 RMK A01 T01621060  RH  021%=      5-min Rain = 0
KCR2 172129Z 15002KT 16/M06 A3007 RMK A01 T01621062  RH  021%=      5-min Rain = 0
KCR2 172130Z 12003KT 16/M06 A3006 RMK A01 T01621061  RH  021%=      5-min Rain = 0
KCR2 172131Z 12004KT 16/M06 A3006 RMK A01 T01621060  RH  021%=      5-min Rain = 0
KCR2 172132Z 12003KT 16/M06 A3006 RMK A01 T01621062  RH  021%=      5-min Rain = 0
KCR2 172133Z 09004KT 16/M06 A3006 RMK A01 T01611059  RH  022%=      5-min Rain = 0
KCR2 172134Z 09005KT 16/M06 A3006 RMK A01 T01631057  RH  021%=      5-min Rain = 0
KCR2 172135Z 07004KT 16/M06 A3006 RMK A01 T01631062  RH  021%=      5-min Rain = 0
KCR2 172136Z 10003KT 16/M06 A3006 RMK A01 T01621063  RH  021%=      5-min Rain = 0
KCR2 172137Z 11005KT 16/M06 A3006 RMK A01 T01621062  RH  021%=      5-min Rain = 0
KCR2 172138Z 12003KT 16/M06 A3006 RMK A01 T01611063  RH  021%=      5-min Rain = 0
KCR2 172139Z 13002KT 16/M06 A3006 RMK A01 T01611063  RH  021%=      5-min Rain = 0
KCR2 172140Z 10002KT 16/M06 A3006 RMK A01 T01611063  RH  021%=      5-min Rain = 0
KCR2 172141Z 06003KT 16/M06 A3006 RMK A01 T01621061  RH  021%=      5-min Rain = 0
KCR2 172142Z 07001KT 16/M06 A3006 RMK A01 T01621064  RH  021%=      5-min Rain = 0
KCR2 172143Z 04001KT 16/M06 A3006 RMK A01 T01641064  RH  020%=      5-min Rain = 0
KCR2 172144Z 02002KT 16/M06 A3006 RMK A01 T01641061  RH  021%=      5-min Rain = 0
KCR2 172145Z 36001KT 17/M06 A3006 RMK A01 T01651063  RH  020%=      5-min Rain = 0
KCR2 172146Z 31001KT 16/M06 A3006 RMK A01 T01641064  RH  020%=      5-min Rain = 0
KCR2 172147Z 26000KT 16/M06 A3006 RMK A01 T01641063  RH  020%=      5-min Rain = 0
KCR2 172148Z 18002KT 17/M06 A3006 RMK A01 T01661061  RH  021%=      5-min Rain = 0
KCR2 172149Z 16005KT 17/M06 A3006 RMK A01 T01681060  RH  021%=      5-min Rain = 0
KCR2 172150Z 14006KT 17/M06 A3006 RMK A01 T01671062  RH  020%=      5-min Rain = 0
KCR2 172151Z 12004KT 17/M06 A3006 RMK A01 T01661061  RH  021%=      5-min Rain = 0
KCR2 172152Z 10002KT 16/M06 A3006 RMK A01 T01641064  RH  020%=      5-min Rain = 0
KCR2 172153Z 12001KT 16/M06 A3006 RMK A01 T01631064  RH  021%=      5-min Rain = 0
KCR2 172154Z 13000KT 16/M06 A3006 RMK A01 T01631062  RH  021%=      5-min Rain = 0
KCR2 172155Z 04000KT 16/M06 A3006 RMK A01 T01641064  RH  020%=      5-min Rain = 0
KCR2 172156Z 09001KT 17/M06 A3006 RMK A01 T01651059  RH  021%=      5-min Rain = 0
KCR2 172157Z 16003KT 17/M06 A3006 RMK A01 T01671057  RH  021%=      5-min Rain = 0
KCR2 172158Z 16004KT 17/M06 A3006 RMK A01 T01681061  RH  020%=      5-min Rain = 0
KCR2 172159Z 16005KT 17/M06 A3006 RMK A01 T01681063  RH  020%=      5-min Rain = 0
KCR2 172200Z 16004KT 17/M06 A3006 RMK A01 T01671063  RH  020%=      5-min Rain = 0
KCR2 172201Z 16004KT 17/M07 A3006 RMK A01 T01661065  RH  020%=      5-min Rain = 0
KCR2 172202Z 15003KT 17/M07 A3006 RMK A01 T01651065  RH  020%=      5-min Rain = 0
KCR2 172203Z 16003KT 17/M06 A3006 RMK A01 T01651063  RH  020%=      5-min Rain = 0
KCR2 172204Z 17004KT 17/M06 A3006 RMK A01 T01651064  RH  020%=      5-min Rain = 0
KCR2 172205Z 18002KT 17/M06 A3006 RMK A01 T01651064  RH  020%=      5-min Rain = 0
KCR2 172206Z 19002KT 17/M07 A3006 RMK A01 T01651066  RH  020%=      5-min Rain = 0
KCR2 172207Z 21001KT 17/M06 A3006 RMK A01 T01651064  RH  020%=      5-min Rain = 0
KCR2 172208Z 19001KT 17/M06 A3006 RMK A01 T01661063  RH  020%=      5-min Rain = 0
KCR2 172209Z 22002KT 17/M06 A3006 RMK A01 T01681064  RH  020%=      5-min Rain = 0
KCR2 172210Z 20003KT 17/M06 A3006 RMK A01 T01691062  RH  020%=      5-min Rain = 0
KCR2 172211Z 19003KT 17/M06 A3006 RMK A01 T01681064  RH  020%=      5-min Rain = 0
KCR2 172212Z 19003KT 17/M07 A3006 RMK A01 T01671065  RH  020%=      5-min Rain = 0
KCR2 172213Z 20003KT 17/M07 A3006 RMK A01 T01661066  RH  020%=      5-min Rain = 0
KCR2 172214Z 22002KT 17/M07 A3006 RMK A01 T01661065  RH  020%=      5-min Rain = 0
KCR2 172215Z 24002KT 17/M06 A3006 RMK A01 T01661064  RH  020%=      5-min Rain = 0
KCR2 172216Z 26002KT 17/M07 A3006 RMK A01 T01671065  RH  020%=      5-min Rain = 0
KCR2 172217Z 28002KT 17/M07 A3006 RMK A01 T01671065  RH  020%=      5-min Rain = 0
KCR2 172218Z 29001KT 17/M07 A3006 RMK A01 T01671066  RH  020%=      5-min Rain = 0
KCR2 172219Z 27002KT 17/M07 A3006 RMK A01 T01671067  RH  020%=      5-min Rain = 0
KCR2 172220Z 25002KT 17/M07 A3006 RMK A01 T01671067  RH  020%=      5-min Rain = 0
KCR2 172221Z 25002KT 17/M07 A3006 RMK A01 T01661067  RH  020%=      5-min Rain = 0
KCR2 172222Z 24002KT 17/M07 A3006 RMK A01 T01671065  RH  020%=      5-min Rain = 0
KCR2 172223Z 24001KT 17/M07 A3006 RMK A01 T01671067  RH  019%=      5-min Rain = 0
KCR2 172224Z 19001KT 17/M07 A3006 RMK A01 T01681067  RH  019%=      5-min Rain = 0
KCR2 172225Z 21001KT 17/M07 A3006 RMK A01 T01701065  RH  019%=      5-min Rain = 0
KCR2 172226Z 26001KT 17/M06 A3006 RMK A01 T01711063  RH  019%=      5-min Rain = 0
KCR2 172227Z 20001KT 17/M06 A3006 RMK A01 T01731061  RH  020%=      5-min Rain = 0
KCR2 172228Z 28001KT 17/M06 A3006 RMK A01 T01741062  RH  019%=      5-min Rain = 0
KCR2 172229Z 29000KT 18/M07 A3006 RMK A01 T01751066  RH  019%=      5-min Rain = 0
KCR2 172230Z 00000KT 18/M06 A3006 RMK A01 T01761064  RH  019%=      5-min Rain = 0
KCR2 172231Z 00000KT 18/M07 A3006 RMK A01 T01761065  RH  019%=      5-min Rain = 0
KCR2 172232Z 00000KT 18/M06 A3006 RMK A01 T01771064  RH  019%=      5-min Rain = 0
KCR2 172233Z 00000KT 18/M06 A3006 RMK A01 T01781064  RH  019%=      5-min Rain = 0
KCR2 172234Z 00000KT 18/M07 A3006 RMK A01 T01761066  RH  019%=      5-min Rain = 0
KCR2 172235Z 00000KT 17/M07 A3006 RMK A01 T01731067  RH  019%=      5-min Rain = 0
KCR2 172236Z 00000KT 17/M07 A3006 RMK A01 T01731068  RH  019%=      5-min Rain = 0
KCR2 172237Z 00000KT 17/M07 A3006 RMK A01 T01741067  RH  019%=      5-min Rain = 0
KCR2 172238Z 00000KT 18/M07 A3006 RMK A01 T01761066  RH  019%=      5-min Rain = 0
KCR2 172239Z 33001KT 18/M07 A3006 RMK A01 T01771066  RH  019%=      5-min Rain = 0
KCR2 172240Z 01001KT 18/M07 A3006 RMK A01 T01761066  RH  019%=      5-min Rain = 0
KCR2 172241Z 02002KT 17/M07 A3006 RMK A01 T01741065  RH  019%=      5-min Rain = 0
KCR2 172242Z 02002KT 17/M07 A3006 RMK A01 T01711066  RH  019%=      5-min Rain = 0
KCR2 172243Z 03002KT 17/M07 A3006 RMK A01 T01691069  RH  019%=      5-min Rain = 0
KCR2 172244Z 04001KT 17/M07 A3006 RMK A01 T01681068  RH  019%=      5-min Rain = 0
KCR2 172245Z 03001KT 17/M07 A3006 RMK A01 T01671067  RH  020%=      5-min Rain = 0
KCR2 172246Z 02002KT 17/M07 A3006 RMK A01 T01661068  RH  019%=      5-min Rain = 0
KCR2 172247Z 04001KT 17/M07 A3006 RMK A01 T01661067  RH  020%=      5-min Rain = 0
KCR2 172248Z 05001KT 17/M07 A3006 RMK A01 T01661066  RH  020%=      5-min Rain = 0
KCR2 172249Z 04001KT 17/M06 A3006 RMK A01 T01661064  RH  020%=      5-min Rain = 0
KCR2 172250Z 03001KT 17/M07 A3006 RMK A01 T01661068  RH  020%=      5-min Rain = 0
KCR2 172251Z 02001KT 17/M07 A3006 RMK A01 T01661066  RH  020%=      5-min Rain = 0
KCR2 172252Z 03001KT 17/M07 A3006 RMK A01 T01651068  RH  020%=      5-min Rain = 0
KCR2 172253Z 04001KT 17/M07 A3006 RMK A01 T01651066  RH  020%=      5-min Rain = 0
KCR2 172254Z 12001KT 17/M07 A3006 RMK A01 T01651067  RH  020%=      5-min Rain = 0
KCR2 172255Z 15002KT 16/M07 A3006 RMK A01 T01641065  RH  020%=      5-min Rain = 0
KCR2 172256Z 14002KT 17/M07 A3006 RMK A01 T01651067  RH  020%=      5-min Rain = 0
KCR2 172257Z 13002KT 17/M06 A3006 RMK A01 T01651063  RH  020%=      5-min Rain = 0
KCR2 172258Z 13002KT 16/M06 A3006 RMK A01 T01641060  RH  021%=      5-min Rain = 0
KCR2 172259Z 12002KT 16/M07 A3006 RMK A01 T01641065  RH  020%=      5-min Rain = 0
KCR2 172300Z 13001KT 16/M07 A3006 RMK A01 T01641068  RH  020%=      5-min Rain = 0
KCR2 172301Z 13002KT 16/M07 A3006 RMK A01 T01641066  RH  020%=      5-min Rain = 0
KCR2 172302Z 14002KT 16/M06 A3006 RMK A01 T01641064  RH  020%=      5-min Rain = 0
KCR2 172303Z 14003KT 16/M07 A3006 RMK A01 T01631065  RH  020%=      5-min Rain = 0
KCR2 172304Z 14003KT 16/M07 A3006 RMK A01 T01631066  RH  020%=      5-min Rain = 0
KCR2 172305Z 14002KT 16/M07 A3006 RMK A01 T01631067  RH  020%=      5-min Rain = 0
KCR2 172306Z 15002KT 16/M06 A3006 RMK A01 T01641064  RH  020%=      5-min Rain = 0
KCR2 172307Z 14003KT 16/M06 A3006 RMK A01 T01641062  RH  021%=      5-min Rain = 0
KCR2 172308Z 14002KT 16/M07 A3006 RMK A01 T01641066  RH  020%=      5-min Rain = 0
KCR2 172309Z 14002KT 17/M06 A3006 RMK A01 T01651063  RH  020%=      5-min Rain = 0
KCR2 172310Z 14002KT 17/M07 A3006 RMK A01 T01651066  RH  020%=      5-min Rain = 0
KCR2 172311Z 16002KT 17/M07 A3006 RMK A01 T01651066  RH  020%=      5-min Rain = 0
KCR2 172312Z 15001KT 17/M06 A3006 RMK A01 T01651063  RH  020%=      5-min Rain = 0
KCR2 172313Z 15001KT 17/M07 A3006 RMK A01 T01661066  RH  020%=      5-min Rain = 0
KCR2 172314Z 16000KT 17/M07 A3006 RMK A01 T01661067  RH  020%=      5-min Rain = 0
KCR2 172315Z 00000KT 17/M06 A3006 RMK A01 T01661064  RH  020%=      5-min Rain = 0
KCR2 172316Z 00000KT 17/M07 A3006 RMK A01 T01671065  RH  020%=      5-min Rain = 0
KCR2 172317Z 13000KT 17/M07 A3006 RMK A01 T01681065  RH  020%=      5-min Rain = 0
KCR2 172318Z 00000KT 17/M06 A3006 RMK A01 T01681063  RH  020%=      5-min Rain = 0
KCR2 172319Z 00000KT 17/M07 A3006 RMK A01 T01681066  RH  019%=      5-min Rain = 0
KCR2 172320Z 00000KT 17/M06 A3006 RMK A01 T01691064  RH  020%=      5-min Rain = 0
KCR2 172321Z 00000KT 17/M07 A3006 RMK A01 T01681067  RH  019%=      5-min Rain = 0
KCR2 172322Z 00000KT 17/M07 A3006 RMK A01 T01681067  RH  019%=      5-min Rain = 0
KCR2 172323Z 00000KT 17/M07 A3006 RMK A01 T01671065  RH  020%=      5-min Rain = 0
KCR2 172324Z 00000KT 17/M07 A3006 RMK A01 T01671068  RH  019%=      5-min Rain = 0
KCR2 172325Z 00000KT 17/M07 A3006 RMK A01 T01671068  RH  019%=      5-min Rain = 0
KCR2 172326Z 00000KT 17/M07 A3006 RMK A01 T01661069  RH  019%=      5-min Rain = 0
KCR2 172327Z 00000KT 17/M07 A3006 RMK A01 T01661068  RH  019%=      5-min Rain = 0
KCR2 172328Z 00000KT 17/M07 A3006 RMK A01 T01661066  RH  020%=      5-min Rain = 0
KCR2 172329Z 00000KT 17/M06 A3006 RMK A01 T01661064  RH  020%=      5-min Rain = 0
KCR2 172330Z 00000KT 17/M07 A3006 RMK A01 T01651067  RH  020%=      5-min Rain = 0
KCR2 172331Z 00000KT 17/M07 A3006 RMK A01 T01661067  RH  020%=      5-min Rain = 0
KCR2 172332Z 00000KT 17/M07 A3006 RMK A01 T01661067  RH  020%=      5-min Rain = 0
KCR2 172333Z 00000KT 17/M07 A3006 RMK A01 T01651068  RH  020%=      5-min Rain = 0
KCR2 172334Z 00000KT 17/M07 A3006 RMK A01 T01651069  RH  020%=      5-min Rain = 0
KCR2 172335Z 00000KT 17/M07 A3006 RMK A01 T01651068  RH  020%=      5-min Rain = 0
KCR2 172336Z 00000KT 17/M07 A3006 RMK A01 T01651068  RH  020%=      5-min Rain = 0
KCR2 172337Z 00000KT 17/M07 A3006 RMK A01 T01661068  RH  019%=      5-min Rain = 0
KCR2 172338Z 00000KT 17/M07 A3006 RMK A01 T01671066  RH  020%=      5-min Rain = 0
KCR2 172339Z 00000KT 17/M07 A3006 RMK A01 T01671065  RH  020%=      5-min Rain = 0
KCR2 172340Z 00000KT 17/M07 A3006 RMK A01 T01671066  RH  020%=      5-min Rain = 0
KCR2 172341Z 00000KT 17/M06 A3006 RMK A01 T01661064  RH  020%=      5-min Rain = 0
KCR2 172342Z 00000KT 17/M07 A3006 RMK A01 T01661065  RH  020%=      5-min Rain = 0
KCR2 172343Z 00000KT 17/M07 A3006 RMK A01 T01661067  RH  020%=      5-min Rain = 0
KCR2 172344Z 00000KT 17/M07 A3006 RMK A01 T01661068  RH  020%=      5-min Rain = 0
KCR2 172345Z 00000KT 17/M07 A3006 RMK A01 T01661068  RH  019%=      5-min Rain = 0
KCR2 172346Z 00000KT 17/M07 A3006 RMK A01 T01651069  RH  019%=      5-min Rain = 0
KCR2 172347Z 00000KT 17/M07 A3007 RMK A01 T01651069  RH  019%=      5-min Rain = 0
KCR2 172348Z 00000KT 16/M07 A3007 RMK A01 T01641069  RH  020%=      5-min Rain = 0
KCR2 172349Z 00000KT 16/M07 A3007 RMK A01 T01631070  RH  020%=      5-min Rain = 0
KCR2 172350Z 00000KT 16/M07 A3007 RMK A01 T01621070  RH  020%=      5-min Rain = 0
KCR2 172351Z 00000KT 16/M07 A3007 RMK A01 T01611070  RH  020%=      5-min Rain = 0
KCR2 172352Z 00000KT 16/M07 A3007 RMK A01 T01601069  RH  020%=      5-min Rain = 0
KCR2 172353Z 00000KT 16/M07 A3006 RMK A01 T01591070  RH  020%=      5-min Rain = 0
KCR2 172354Z 00000KT 16/M07 A3006 RMK A01 T01591070  RH  020%=      5-min Rain = 0
KCR2 172355Z 00000KT 16/M07 A3006 RMK A01 T01581069  RH  020%=      5-min Rain = 0
KCR2 172356Z 00000KT 16/M07 A3006 RMK A01 T01581068  RH  021%=      5-min Rain = 0
KCR2 172357Z 00000KT 16/M07 A3006 RMK A01 T01571068  RH  021%=      5-min Rain = 0
KCR2 172358Z 00000KT 16/M07 A3006 RMK A01 T01571069  RH  020%=      5-min Rain = 0
KCR2 172359Z 00000KT 16/M07 A3006 RMK A01 T01571069  RH  020%=      5-min Rain = 0
KCR2 180000Z 00000KT 16/M07 A3006 RMK A01 T01561068  RH  021%=      5-min Rain = 0
KCR2 180001Z 00000KT 16/M07 A3006 RMK A01 T01551067  RH  021%=      5-min Rain = 0
KCR2 180002Z 00000KT 16/M07 A3006 RMK A01 T01551069  RH  021%=      5-min Rain = 0
KCR2 180003Z 00000KT 15/M07 A3006 RMK A01 T01541070  RH  021%=      5-min Rain = 0
KCR2 180004Z 12000KT 15/M07 A3006 RMK A01 T01541067  RH  021%=      5-min Rain = 0
KCR2 180005Z 12001KT 15/M07 A3006 RMK A01 T01531066  RH  022%=      5-min Rain = 0
KCR2 180006Z 08001KT 15/M07 A3006 RMK A01 T01521066  RH  022%=      5-min Rain = 0
KCR2 180007Z 08003KT 15/M06 A3006 RMK A01 T01511061  RH  023%=      5-min Rain = 0
KCR2 180008Z 08003KT 15/M06 A3006 RMK A01 T01481057  RH  024%=      5-min Rain = 0
KCR2 180009Z 09003KT 15/M06 A3006 RMK A01 T01461058  RH  024%=      5-min Rain = 0
KCR2 180010Z 09003KT 15/M06 A3006 RMK A01 T01451057  RH  024%=      5-min Rain = 0
KCR2 180011Z 09003KT 14/M06 A3006 RMK A01 T01431058  RH  024%=      5-min Rain = 0
KCR2 180012Z 09003KT 14/M06 A3006 RMK A01 T01421059  RH  024%=      5-min Rain = 0
KCR2 180013Z 09004KT 14/M06 A3006 RMK A01 T01411060  RH  024%=      5-min Rain = 0
KCR2 180014Z 09004KT 14/M06 A3006 RMK A01 T01411059  RH  024%=      5-min Rain = 0
KCR2 180015Z 09004KT 14/M06 A3006 RMK A01 T01411059  RH  025%=      5-min Rain = 0
KCR2 180016Z 09004KT 14/M06 A3006 RMK A01 T01401056  RH  025%=      5-min Rain = 0
KCR2 180017Z 09004KT 14/M06 A3006 RMK A01 T01401056  RH  025%=      5-min Rain = 0
KCR2 180018Z 09004KT 14/M06 A3006 RMK A01 T01391055  RH  026%=      5-min Rain = 0
KCR2 180019Z 09004KT 14/M05 A3006 RMK A01 T01381054  RH  026%=      5-min Rain = 0
KCR2 180020Z 10004KT 14/M05 A3006 RMK A01 T01361054  RH  026%=      5-min Rain = 0
KCR2 180021Z 10004KT 14/M05 A3006 RMK A01 T01361053  RH  027%=      5-min Rain = 0
KCR2 180022Z 10004KT 13/M05 A3006 RMK A01 T01341051  RH  027%=      5-min Rain = 0
KCR2 180023Z 10004KT 13/M05 A3006 RMK A01 T01331050  RH  028%=      5-min Rain = 0
KCR2 180024Z 10004KT 13/M05 A3006 RMK A01 T01321050  RH  028%=      5-min Rain = 0
KCR2 180025Z 10004KT 13/M05 A3006 RMK A01 T01311051  RH  028%=      5-min Rain = 0
KCR2 180026Z 10005KT 13/M05 A3006 RMK A01 T01291049  RH  029%=      5-min Rain = 0
KCR2 180027Z 10005KT 13/M05 A3006 RMK A01 T01281049  RH  029%=      5-min Rain = 0
KCR2 180028Z 10005KT 13/M05 A3006 RMK A01 T01281047  RH  029%=      5-min Rain = 0
KCR2 180029Z 11005KT 13/M05 A3006 RMK A01 T01271046  RH  030%=      5-min Rain = 0
KCR2 180030Z 10005KT 13/M05 A3006 RMK A01 T01261046  RH  030%=      5-min Rain = 0
KCR2 180031Z 10006KT 12/M05 A3006 RMK A01 T01241047  RH  030%=      5-min Rain = 0
KCR2 180032Z 10006KT 12/M05 A3006 RMK A01 T01231047  RH  030%=      5-min Rain = 0
KCR2 180033Z 10007KT 12/M05 A3006 RMK A01 T01221046  RH  031%=      5-min Rain = 0
KCR2 180034Z 10007KT 12/M05 A3006 RMK A01 T01201046  RH  031%=      5-min Rain = 0
KCR2 180035Z 10007KT 12/M05 A3006 RMK A01 T01181046  RH  031%=      5-min Rain = 0
KCR2 180036Z 11007KT 12/M05 A3006 RMK A01 T01161047  RH  032%=      5-min Rain = 0
KCR2 180037Z 11007KT 12/M05 A3006 RMK A01 T01151046  RH  032%=      5-min Rain = 0
KCR2 180038Z 11006KT 11/M04 A3006 RMK A01 T01131044  RH  033%=      5-min Rain = 0
KCR2 180039Z 11007KT 11/M04 A3006 RMK A01 T01111042  RH  034%=      5-min Rain = 0
KCR2 180040Z 10007KT 11/M04 A3006 RMK A01 T01091041  RH  035%=      5-min Rain = 0
KCR2 180041Z 10007KT 11/M04 A3006 RMK A01 T01071042  RH  035%=      5-min Rain = 0
KCR2 180042Z 10007KT 11/M04 A3006 RMK A01 T01071044  RH  034%=      5-min Rain = 0
KCR2 180043Z 10008KT 11/M04 A3006 RMK A01 T01071043  RH  035%=      5-min Rain = 0
KCR2 180044Z 10008KT 11/M04 A3006 RMK A01 T01051043  RH  035%=      5-min Rain = 0
KCR2 180045Z 10008KT 10/M04 A3006 RMK A01 T01041043  RH  035%=      5-min Rain = 0
KCR2 180046Z 10008KT 10/M04 A3006 RMK A01 T01031042  RH  036%=      5-min Rain = 0
KCR2 180047Z 10008KT 10/M04 A3006 RMK A01 T01041041  RH  036%=      5-min Rain = 0
KCR2 180048Z 10008KT 10/M04 A3006 RMK A01 T01031041  RH  036%=      5-min Rain = 0
KCR2 180049Z 10007KT 10/M04 A3006 RMK A01 T01021040  RH  037%=      5-min Rain = 0
KCR2 180050Z 11007KT 10/M04 A3006 RMK A01 T01011040  RH  037%=      5-min Rain = 0
KCR2 180051Z 11007KT 10/M04 A3006 RMK A01 T01001040  RH  037%=      5-min Rain = 0
KCR2 180052Z 11006KT 10/M04 A3006 RMK A01 T00991040  RH  037%=      5-min Rain = 0
KCR2 180053Z 11006KT 10/M04 A3007 RMK A01 T00981040  RH  038%=      5-min Rain = 0
KCR2 180054Z 10006KT 10/M04 A3007 RMK A01 T00971038  RH  038%=      5-min Rain = 0
KCR2 180055Z 11007KT 10/M04 A3007 RMK A01 T00951040  RH  038%=      5-min Rain = 0
KCR2 180056Z 11007KT 10/M04 A3007 RMK A01 T00961042  RH  037%=      5-min Rain = 0
KCR2 180057Z 10006KT 10/M04 A3007 RMK A01 T00971039  RH  038%=      5-min Rain = 0
KCR2 180058Z 10006KT 10/M04 A3007 RMK A01 T00961040  RH  038%=      5-min Rain = 0
KCR2 180059Z 10006KT 10/M04 A3007 RMK A01 T00961041  RH  038%=      5-min Rain = 0
KCR2 180100Z 10006KT 10/M04 A3007 RMK A01 T00951041  RH  038%=      5-min Rain = 0
KCR2 180101Z 10006KT 10/M04 A3007 RMK A01 T00951042  RH  038%=      5-min Rain = 0
KCR2 180102Z 11007KT 10/M04 A3007 RMK A01 T00951043  RH  037%=      5-min Rain = 0
KCR2 180103Z 11007KT 10/M04 A3007 RMK A01 T00961043  RH  037%=      5-min Rain = 0
KCR2 180104Z 11006KT 10/M04 A3007 RMK A01 T00961042  RH  037%=      5-min Rain = 0
KCR2 180105Z 11006KT 10/M04 A3007 RMK A01 T00951041  RH  038%=      5-min Rain = 0
KCR2 180106Z 12006KT 09/M04 A3007 RMK A01 T00931040  RH  039%=      5-min Rain = 0
KCR2 180107Z 12006KT 09/M04 A3007 RMK A01 T00911040  RH  040%=      5-min Rain = 0
KCR2 180108Z 12006KT 09/M04 A3007 RMK A01 T00911041  RH  039%=      5-min Rain = 0
KCR2 180109Z 12007KT 09/M04 A3007 RMK A01 T00921041  RH  039%=      5-min Rain = 0
KCR2 180110Z 12007KT 09/M04 A3007 RMK A01 T00931040  RH  039%=      5-min Rain = 0
KCR2 180111Z 12006KT 09/M04 A3007 RMK A01 T00931040  RH  039%=      5-min Rain = 0
KCR2 180112Z 12006KT 09/M04 A3007 RMK A01 T00911039  RH  040%=      5-min Rain = 0
KCR2 180113Z 12006KT 09/M04 A3007 RMK A01 T00891039  RH  040%=      5-min Rain = 0
KCR2 180114Z 12007KT 09/M04 A3007 RMK A01 T00871038  RH  041%=      5-min Rain = 0
KCR2 180115Z 12007KT 09/M04 A3007 RMK A01 T00861038  RH  041%=      5-min Rain = 0
KCR2 180116Z 12007KT 08/M04 A3007 RMK A01 T00841037  RH  042%=      5-min Rain = 0
KCR2 180117Z 12008KT 08/M04 A3007 RMK A01 T00821036  RH  043%=      5-min Rain = 0
KCR2 180118Z 12008KT 08/M04 A3007 RMK A01 T00811036  RH  043%=      5-min Rain = 0
KCR2 180119Z 12008KT 08/M04 A3006 RMK A01 T00821037  RH  043%=      5-min Rain = 0
KCR2 180120Z 12008KT 08/M04 A3006 RMK A01 T00831038  RH  042%=      5-min Rain = 0
KCR2 180121Z 12008KT 08/M04 A3006 RMK A01 T00831037  RH  042%=      5-min Rain = 0
KCR2 180122Z 12008KT 08/M04 A3007 RMK A01 T00821037  RH  043%=      5-min Rain = 0
KCR2 180123Z 12008KT 08/M04 A3006 RMK A01 T00811037  RH  043%=      5-min Rain = 0
KCR2 180124Z 12008KT 08/M04 A3006 RMK A01 T00811037  RH  043%=      5-min Rain = 0
KCR2 180125Z 12008KT 08/M04 A3006 RMK A01 T00801036  RH  043%=      5-min Rain = 0
KCR2 180126Z 12008KT 08/M04 A3006 RMK A01 T00801037  RH  044%=      5-min Rain = 0
KCR2 180127Z 12008KT 08/M04 A3007 RMK A01 T00791036  RH  044%=      5-min Rain = 0
KCR2 180128Z 12008KT 08/M04 A3007 RMK A01 T00791036  RH  044%=      5-min Rain = 0
KCR2 180129Z 12008KT 08/M04 A3007 RMK A01 T00781036  RH  044%=      5-min Rain = 0
KCR2 180130Z 12008KT 08/M04 A3007 RMK A01 T00771036  RH  045%=      5-min Rain = 0
KCR2 180131Z 12008KT 08/M04 A3007 RMK A01 T00771036  RH  045%=      5-min Rain = 0
KCR2 180132Z 12008KT 08/M04 A3007 RMK A01 T00761036  RH  045%=      5-min Rain = 0
KCR2 180133Z 10007KT 08/M04 A3007 RMK A01 T00761035  RH  045%=      5-min Rain = 0
KCR2 180134Z 11007KT 08/M04 A3007 RMK A01 T00751036  RH  045%=      5-min Rain = 0
KCR2 180135Z 11007KT 08/M04 A3007 RMK A01 T00751035  RH  045%=      5-min Rain = 0
KCR2 180136Z 11006KT 08/M04 A3007 RMK A01 T00751035  RH  046%=      5-min Rain = 0
KCR2 180137Z 12007KT 07/M03 A3007 RMK A01 T00741034  RH  046%=      5-min Rain = 0
KCR2 180138Z 12008KT 07/M03 A3007 RMK A01 T00731034  RH  046%=      5-min Rain = 0
KCR2 180139Z 12007KT 07/M03 A3007 RMK A01 T00731034  RH  047%=      5-min Rain = 0
KCR2 180140Z 11006KT 07/M03 A3006 RMK A01 T00731034  RH  047%=      5-min Rain = 0
KCR2 180141Z 11006KT 07/M03 A3006 RMK A01 T00731033  RH  047%=      5-min Rain = 0
KCR2 180142Z 11006KT 07/M03 A3006 RMK A01 T00731033  RH  047%=      5-min Rain = 0
KCR2 180143Z 11006KT 07/M03 A3006 RMK A01 T00731033  RH  047%=      5-min Rain = 0
KCR2 180144Z 11007KT 07/M03 A3006 RMK A01 T00741033  RH  047%=      5-min Rain = 0
KCR2 180145Z 11007KT 07/M03 A3006 RMK A01 T00741033  RH  047%=      5-min Rain = 0
KCR2 180146Z 11006KT 07/M03 A3007 RMK A01 T00741033  RH  047%=      5-min Rain = 0
KCR2 180147Z 11006KT 07/M03 A3007 RMK A01 T00741033  RH  047%=      5-min Rain = 0
KCR2 180148Z 11007KT 07/M03 A3007 RMK A01 T00741032  RH  047%=      5-min Rain = 0
KCR2 180149Z 11007KT 07/M03 A3007 RMK A01 T00741032  RH  047%=      5-min Rain = 0
KCR2 180150Z 12006KT 07/M03 A3007 RMK A01 T00741032  RH  047%=      5-min Rain = 0
KCR2 180151Z 12006KT 07/M03 A3007 RMK A01 T00741032  RH  047%=      5-min Rain = 0
KCR2 180152Z 11006KT 07/M03 A3007 RMK A01 T00741032  RH  047%=      5-min Rain = 0
KCR2 180153Z 11006KT 07/M03 A3007 RMK A01 T00741032  RH  047%=      5-min Rain = 0
KCR2 180154Z 10006KT 07/M03 A3007 RMK A01 T00741033  RH  047%=      5-min Rain = 0
KCR2 180155Z 10005KT 07/M03 A3007 RMK A01 T00741033  RH  047%=      5-min Rain = 0
KCR2 180156Z 10005KT 07/M03 A3007 RMK A01 T00741033  RH  047%=      5-min Rain = 0
KCR2 180157Z 10005KT 07/M03 A3007 RMK A01 T00741033  RH  046%=      5-min Rain = 0
KCR2 180158Z 09005KT 08/M03 A3007 RMK A01 T00751034  RH  046%=      5-min Rain = 0
KCR2 180159Z 07005KT 08/M03 A3007 RMK A01 T00751033  RH  046%=      5-min Rain = 0
KCR2 180200Z 08005KT 07/M03 A3007 RMK A01 T00721034  RH  047%=      5-min Rain = 0
KCR2 180201Z 08005KT 07/M03 A3007 RMK A01 T00701034  RH  048%=      5-min Rain = 0
KCR2 180202Z 06004KT 07/M03 A3007 RMK A01 T00681032  RH  049%=      5-min Rain = 0
KCR2 180203Z 08005KT 06/M03 A3007 RMK A01 T00641032  RH  051%=      5-min Rain = 0
KCR2 180204Z 08004KT 06/M03 A3007 RMK A01 T00611032  RH  051%=      5-min Rain = 0
KCR2 180205Z 08004KT 06/M03 A3007 RMK A01 T00601031  RH  052%=      5-min Rain = 0
KCR2 180206Z 07004KT 06/M03 A3007 RMK A01 T00581031  RH  052%=      5-min Rain = 0
KCR2 180207Z 05004KT 06/M03 A3007 RMK A01 T00561032  RH  053%=      5-min Rain = 0
KCR2 180208Z 06005KT 06/M03 A3007 RMK A01 T00551031  RH  054%=      5-min Rain = 0
KCR2 180209Z 09006KT 06/M03 A3007 RMK A01 T00551030  RH  054%=      5-min Rain = 0
KCR2 180210Z 11008KT 06/M03 A3007 RMK A01 T00551030  RH  054%=      5-min Rain = 0
KCR2 180211Z 11008KT 06/M03 A3007 RMK A01 T00551030  RH  054%=      5-min Rain = 0
KCR2 180212Z 11008KT 06/M03 A3007 RMK A01 T00551030  RH  054%=      5-min Rain = 0
KCR2 180213Z 11008KT 05/M03 A3007 RMK A01 T00531030  RH  055%=      5-min Rain = 0
KCR2 180214Z 10008KT 05/M03 A3007 RMK A01 T00531030  RH  055%=      5-min Rain = 0
KCR2 180215Z 08006KT 05/M03 A3007 RMK A01 T00521030  RH  056%=      5-min Rain = 0
KCR2 180216Z 08006KT 05/M03 A3007 RMK A01 T00511030  RH  056%=      5-min Rain = 0
KCR2 180217Z 10007KT 05/M03 A3007 RMK A01 T00501030  RH  056%=      5-min Rain = 0
KCR2 180218Z 11007KT 05/M03 A3007 RMK A01 T00511030  RH  056%=      5-min Rain = 0
KCR2 180219Z 11007KT 05/M03 A3007 RMK A01 T00511031  RH  056%=      5-min Rain = 0
KCR2 180220Z 11007KT 05/M03 A3007 RMK A01 T00511030  RH  056%=      5-min Rain = 0
KCR2 180221Z 11007KT 05/M03 A3007 RMK A01 T00511030  RH  056%=      5-min Rain = 0
KCR2 180222Z 11006KT 05/M03 A3007 RMK A01 T00501030  RH  056%=      5-min Rain = 0
KCR2 180223Z 10006KT 05/M03 A3007 RMK A01 T00491030  RH  057%=      5-min Rain = 0
KCR2 180224Z 09006KT 05/M03 A3007 RMK A01 T00481030  RH  057%=      5-min Rain = 0
KCR2 180225Z 09007KT 05/M03 A3007 RMK A01 T00471030  RH  057%=      5-min Rain = 0
KCR2 180226Z 10008KT 05/M03 A3007 RMK A01 T00471029  RH  058%=      5-min Rain = 0
KCR2 180227Z 12008KT 05/M03 A3007 RMK A01 T00471030  RH  057%=      5-min Rain = 0
KCR2 180228Z 12008KT 05/M03 A3007 RMK A01 T00491030  RH  057%=      5-min Rain = 0
KCR2 180229Z 12007KT 05/M03 A3007 RMK A01 T00501029  RH  056%=      5-min Rain = 0
KCR2 180230Z 10005KT 05/M03 A3007 RMK A01 T00501029  RH  056%=      5-min Rain = 0
KCR2 180231Z 10005KT 05/M03 A3007 RMK A01 T00491030  RH  057%=      5-min Rain = 0
KCR2 180232Z 11007KT 05/M03 A3007 RMK A01 T00491030  RH  057%=      5-min Rain = 0
KCR2 180233Z 11007KT 05/M03 A3007 RMK A01 T00481030  RH  057%=      5-min Rain = 0
KCR2 180234Z 11007KT 05/M03 A3007 RMK A01 T00481030  RH  057%=      5-min Rain = 0
KCR2 180235Z 11007KT 05/M03 A3007 RMK A01 T00471030  RH  057%=      5-min Rain = 0
KCR2 180236Z 10007KT 05/M03 A3007 RMK A01 T00471030  RH  058%=      5-min Rain = 0
KCR2 180237Z 10007KT 05/M03 A3007 RMK A01 T00461030  RH  058%=      5-min Rain = 0
KCR2 180238Z 10007KT 05/M03 A3007 RMK A01 T00461030  RH  058%=      5-min Rain = 0
KCR2 180239Z 11007KT 05/M03 A3007 RMK A01 T00471030  RH  058%=      5-min Rain = 0
KCR2 180240Z 11007KT 05/M03 A3007 RMK A01 T00471030  RH  057%=      5-min Rain = 0
KCR2 180241Z 10007KT 05/M03 A3007 RMK A01 T00481030  RH  057%=      5-min Rain = 0
KCR2 180242Z 10007KT 05/M03 A3007 RMK A01 T00491030  RH  057%=      5-min Rain = 0
KCR2 180243Z 10007KT 05/M03 A3006 RMK A01 T00491030  RH  057%=      5-min Rain = 0
KCR2 180244Z 10007KT 05/M03 A3006 RMK A01 T00481030  RH  057%=      5-min Rain = 0
KCR2 180245Z 10006KT 05/M03 A3006 RMK A01 T00471030  RH  057%=      5-min Rain = 0
KCR2 180246Z 10006KT 05/M03 A3007 RMK A01 T00461030  RH  058%=      5-min Rain = 0
KCR2 180247Z 10007KT 05/M03 A3007 RMK A01 T00451030  RH  058%=      5-min Rain = 0
KCR2 180248Z 10007KT 04/M03 A3007 RMK A01 T00441030  RH  059%=      5-min Rain = 0
KCR2 180249Z 11007KT 04/M03 A3007 RMK A01 T00431030  RH  059%=      5-min Rain = 0
KCR2 180250Z 11007KT 04/M03 A3007 RMK A01 T00421030  RH  059%=      5-min Rain = 0
KCR2 180251Z 11008KT 04/M03 A3007 RMK A01 T00411030  RH  060%=      5-min Rain = 0
KCR2 180252Z 11007KT 04/M03 A3007 RMK A01 T00411030  RH  060%=      5-min Rain = 0
KCR2 180253Z 11007KT 04/M03 A3007 RMK A01 T00401030  RH  060%=      5-min Rain = 0
KCR2 180254Z 11007KT 04/M03 A3007 RMK A01 T00401030  RH  060%=      5-min Rain = 0
KCR2 180255Z 10007KT 04/M03 A3007 RMK A01 T00391030  RH  060%=      5-min Rain = 0
KCR2 180256Z 10007KT 04/M03 A3007 RMK A01 T00401030  RH  060%=      5-min Rain = 0
KCR2 180257Z 10007KT 04/M03 A3007 RMK A01 T00391030  RH  060%=      5-min Rain = 0
KCR2 180258Z 10007KT 04/M03 A3007 RMK A01 T00401030  RH  060%=      5-min Rain = 0
KCR2 180259Z 10007KT 04/M03 A3007 RMK A01 T00401030  RH  060%=      5-min Rain = 0
KCR2 180300Z 10008KT 04/M03 A3007 RMK A01 T00411030  RH  060%=      5-min Rain = 0
KCR2 180301Z 10007KT 04/M03 A3007 RMK A01 T00411031  RH  060%=      5-min Rain = 0
KCR2 180302Z 10007KT 04/M03 A3007 RMK A01 T00411031  RH  060%=      5-min Rain = 0
KCR2 180303Z 10008KT 04/M03 A3007 RMK A01 T00411031  RH  060%=      5-min Rain = 0
KCR2 180304Z 10008KT 04/M03 A3007 RMK A01 T00411031  RH  059%=      5-min Rain = 0
KCR2 180305Z 11008KT 04/M03 A3007 RMK A01 T00411031  RH  059%=      5-min Rain = 0
KCR2 180306Z 11008KT 04/M03 A3007 RMK A01 T00411031  RH  059%=      5-min Rain = 0
KCR2 180307Z 11008KT 04/M03 A3007 RMK A01 T00411031  RH  060%=      5-min Rain = 0
KCR2 180308Z 11008KT 04/M03 A3007 RMK A01 T00411030  RH  060%=      5-min Rain = 0
KCR2 180309Z 11007KT 04/M03 A3007 RMK A01 T00401030  RH  060%=      5-min Rain = 0
KCR2 180310Z 11007KT 04/M03 A3007 RMK A01 T00401030  RH  060%=      5-min Rain = 0
KCR2 180311Z 11008KT 04/M03 A3007 RMK A01 T00401030  RH  060%=      5-min Rain = 0
KCR2 180312Z 11008KT 04/M03 A3007 RMK A01 T00401031  RH  060%=      5-min Rain = 0
KCR2 180313Z 11008KT 04/M03 A3007 RMK A01 T00401031  RH  060%=      5-min Rain = 0
KCR2 180314Z 11008KT 04/M03 A3007 RMK A01 T00411031  RH  060%=      5-min Rain = 0
KCR2 180315Z 11008KT 04/M03 A3006 RMK A01 T00411031  RH  059%=      5-min Rain = 0
KCR2 180316Z 11007KT 04/M03 A3006 RMK A01 T00411031  RH  059%=      5-min Rain = 0
KCR2 180317Z 12007KT 04/M03 A3006 RMK A01 T00421031  RH  059%=      5-min Rain = 0
KCR2 180318Z 12006KT 04/M03 A3006 RMK A01 T00421031  RH  059%=      5-min Rain = 0
KCR2 180319Z 12006KT 04/M03 A3006 RMK A01 T00421031  RH  059%=      5-min Rain = 0
KCR2 180320Z 12007KT 04/M03 A3006 RMK A01 T00421031  RH  059%=      5-min Rain = 0
KCR2 180321Z 12007KT 04/M03 A3006 RMK A01 T00411031  RH  059%=      5-min Rain = 0
KCR2 180322Z 12007KT 04/M03 A3006 RMK A01 T00411031  RH  060%=      5-min Rain = 0
KCR2 180323Z 11007KT 04/M03 A3006 RMK A01 T00411030  RH  060%=      5-min Rain = 0
KCR2 180324Z 12007KT 04/M03 A3006 RMK A01 T00411031  RH  059%=      5-min Rain = 0
KCR2 180325Z 12007KT 04/M03 A3006 RMK A01 T00421031  RH  059%=      5-min Rain = 0
KCR2 180326Z 12007KT 04/M03 A3006 RMK A01 T00431031  RH  059%=      5-min Rain = 0
KCR2 180327Z 12007KT 04/M03 A3006 RMK A01 T00431031  RH  059%=      5-min Rain = 0
KCR2 180328Z 11007KT 04/M03 A3006 RMK A01 T00431031  RH  058%=      5-min Rain = 0
KCR2 180329Z 12007KT 04/M03 A3006 RMK A01 T00441031  RH  058%=      5-min Rain = 0
KCR2 180330Z 11007KT 05/M03 A3006 RMK A01 T00451031  RH  058%=      5-min Rain = 0
KCR2 180331Z 11006KT 05/M03 A3006 RMK A01 T00451031  RH  058%=      5-min Rain = 0
KCR2 180332Z 11006KT 05/M03 A3006 RMK A01 T00451031  RH  058%=      5-min Rain = 0
KCR2 180333Z 10006KT 05/M03 A3006 RMK A01 T00451031  RH  058%=      5-min Rain = 0
KCR2 180334Z 10006KT 05/M03 A3006 RMK A01 T00451031  RH  058%=      5-min Rain = 0
KCR2 180335Z 10006KT 04/M03 A3006 RMK A01 T00441031  RH  058%=      5-min Rain = 0
KCR2 180336Z 11006KT 04/M03 A3006 RMK A01 T00431032  RH  058%=      5-min Rain = 0
KCR2 180337Z 11006KT 04/M03 A3006 RMK A01 T00411032  RH  059%=      5-min Rain = 0
KCR2 180338Z 11006KT 04/M03 A3006 RMK A01 T00401032  RH  059%=      5-min Rain = 0
KCR2 180339Z 11006KT 04/M03 A3006 RMK A01 T00391032  RH  060%=      5-min Rain = 0
KCR2 180340Z 11006KT 04/M03 A3006 RMK A01 T00381032  RH  060%=      5-min Rain = 0
KCR2 180341Z 12006KT 04/M03 A3006 RMK A01 T00391032  RH  060%=      5-min Rain = 0
KCR2 180342Z 12006KT 04/M03 A3006 RMK A01 T00381032  RH  060%=      5-min Rain = 0
KCR2 180343Z 12006KT 04/M03 A3006 RMK A01 T00391032  RH  060%=      5-min Rain = 0
KCR2 180344Z 12006KT 04/M03 A3006 RMK A01 T00391031  RH  060%=      5-min Rain = 0
KCR2 180345Z 11006KT 04/M03 A3006 RMK A01 T00391031  RH  060%=      5-min Rain = 0
KCR2 180346Z 08005KT 04/M03 A3006 RMK A01 T00391031  RH  060%=      5-min Rain = 0
KCR2 180347Z 09005KT 04/M03 A3006 RMK A01 T00361031  RH  061%=      5-min Rain = 0
KCR2 180348Z 11006KT 04/M03 A3006 RMK A01 T00351031  RH  062%=      5-min Rain = 0
KCR2 180349Z 11006KT 04/M03 A3006 RMK A01 T00351031  RH  062%=      5-min Rain = 0
KCR2 180350Z 11006KT 03/M03 A3006 RMK A01 T00341031  RH  062%=      5-min Rain = 0
KCR2 180351Z 11007KT 04/M03 A3006 RMK A01 T00351031  RH  062%=      5-min Rain = 0
KCR2 180352Z 11008KT 03/M03 A3006 RMK A01 T00341031  RH  062%=      5-min Rain = 0
KCR2 180353Z 11008KT 03/M03 A3007 RMK A01 T00341031  RH  063%=      5-min Rain = 0
KCR2 180354Z 11007KT 03/M03 A3007 RMK A01 T00331030  RH  063%=      5-min Rain = 0
KCR2 180355Z 11007KT 03/M03 A3007 RMK A01 T00331031  RH  063%=      5-min Rain = 0
KCR2 180356Z 12007KT 03/M03 A3007 RMK A01 T00331031  RH  063%=      5-min Rain = 0
KCR2 180357Z 12007KT 03/M03 A3007 RMK A01 T00341031  RH  062%=      5-min Rain = 0
KCR2 180358Z 12007KT 04/M03 A3007 RMK A01 T00361031  RH  062%=      5-min Rain = 0
KCR2 180359Z 11006KT 04/M03 A3007 RMK A01 T00381030  RH  061%=      5-min Rain = 0
KCR2 180400Z 11007KT 04/M03 A3007 RMK A01 T00401031  RH  060%=      5-min Rain = 0
KCR2 180401Z 12006KT 04/M03 A3007 RMK A01 T00411030  RH  060%=      5-min Rain = 0
KCR2 180402Z 12006KT 04/M03 A3007 RMK A01 T00421030  RH  059%=      5-min Rain = 0
KCR2 180403Z 11005KT 04/M03 A3007 RMK A01 T00411031  RH  059%=      5-min Rain = 0
KCR2 180404Z 09005KT 04/M03 A3007 RMK A01 T00391032  RH  060%=      5-min Rain = 0
KCR2 180405Z 09006KT 04/M03 A3007 RMK A01 T00371032  RH  061%=      5-min Rain = 0
KCR2 180406Z 11007KT 04/M03 A3007 RMK A01 T00361031  RH  061%=      5-min Rain = 0
KCR2 180407Z 11006KT 04/M03 A3007 RMK A01 T00361030  RH  062%=      5-min Rain = 0
KCR2 180408Z 11006KT 04/M03 A3007 RMK A01 T00351031  RH  062%=      5-min Rain = 0
KCR2 180409Z 10007KT 03/M03 A3007 RMK A01 T00341031  RH  062%=      5-min Rain = 0
KCR2 180410Z 10007KT 03/M03 A3007 RMK A01 T00331031  RH  063%=      5-min Rain = 0
KCR2 180411Z 11008KT 03/M03 A3007 RMK A01 T00321031  RH  064%=      5-min Rain = 0
KCR2 180412Z 11008KT 03/M03 A3007 RMK A01 T00311031  RH  064%=      5-min Rain = 0
KCR2 180413Z 11007KT 03/M03 A3007 RMK A01 T00311031  RH  064%=      5-min Rain = 0
KCR2 180414Z 11007KT 03/M03 A3007 RMK A01 T00321030  RH  064%=      5-min Rain = 0
KCR2 180415Z 11008KT 03/M03 A3007 RMK A01 T00321031  RH  063%=      5-min Rain = 0
KCR2 180416Z 11007KT 03/M03 A3007 RMK A01 T00331031  RH  063%=      5-min Rain = 0
KCR2 180417Z 11007KT 03/M03 A3007 RMK A01 T00331031  RH  063%=      5-min Rain = 0
KCR2 180418Z 12007KT 03/M03 A3007 RMK A01 T00331031  RH  063%=      5-min Rain = 0
KCR2 180419Z 12007KT 03/M03 A3007 RMK A01 T00331031  RH  063%=      5-min Rain = 0
KCR2 180420Z 12007KT 03/M03 A3007 RMK A01 T00341030  RH  063%=      5-min Rain = 0
KCR2 180421Z 12006KT 03/M03 A3007 RMK A01 T00341031  RH  063%=      5-min Rain = 0
KCR2 180422Z 12006KT 03/M03 A3007 RMK A01 T00341031  RH  062%=      5-min Rain = 0
KCR2 180423Z 12006KT 03/M03 A3007 RMK A01 T00331031  RH  063%=      5-min Rain = 0
KCR2 180424Z 12006KT 03/M03 A3007 RMK A01 T00321032  RH  063%=      5-min Rain = 0
KCR2 180425Z 12006KT 03/M03 A3007 RMK A01 T00321032  RH  063%=      5-min Rain = 0
KCR2 180426Z 11006KT 03/M03 A3007 RMK A01 T00311032  RH  063%=      5-min Rain = 0
KCR2 180427Z 11005KT 03/M03 A3007 RMK A01 T00311032  RH  063%=      5-min Rain = 0
KCR2 180428Z 11006KT 03/M03 A3007 RMK A01 T00311032  RH  063%=      5-min Rain = 0
KCR2 180429Z 11006KT 03/M03 A3007 RMK A01 T00311033  RH  063%=      5-min Rain = 0
KCR2 180430Z 11006KT 03/M03 A3007 RMK A01 T00311033  RH  063%=      5-min Rain = 0
KCR2 180431Z 11006KT 03/M03 A3007 RMK A01 T00311033  RH  063%=      5-min Rain = 0
KCR2 180432Z 11006KT 03/M03 A3007 RMK A01 T00311033  RH  062%=      5-min Rain = 0
KCR2 180433Z 11006KT 03/M03 A3007 RMK A01 T00321033  RH  062%=      5-min Rain = 0
KCR2 180434Z 11006KT 03/M03 A3007 RMK A01 T00321034  RH  062%=      5-min Rain = 0
KCR2 180435Z 11006KT 03/M03 A3007 RMK A01 T00321034  RH  062%=      5-min Rain = 0
KCR2 180436Z 11006KT 03/M03 A3007 RMK A01 T00321033  RH  062%=      5-min Rain = 0
KCR2 180437Z 11006KT 03/M03 A3007 RMK A01 T00311033  RH  063%=      5-min Rain = 0
KCR2 180438Z 12006KT 03/M03 A3007 RMK A01 T00311033  RH  063%=      5-min Rain = 0
KCR2 180439Z 12007KT 03/M03 A3007 RMK A01 T00321033  RH  062%=      5-min Rain = 0
KCR2 180440Z 11007KT 03/M03 A3007 RMK A01 T00331033  RH  062%=      5-min Rain = 0
KCR2 180441Z 11007KT 03/M03 A3007 RMK A01 T00331033  RH  062%=      5-min Rain = 0
KCR2 180442Z 11007KT 03/M03 A3007 RMK A01 T00321032  RH  062%=      5-min Rain = 0
KCR2 180443Z 12007KT 03/M03 A3007 RMK A01 T00321032  RH  063%=      5-min Rain = 0
KCR2 180444Z 12007KT 03/M03 A3007 RMK A01 T00321032  RH  063%=      5-min Rain = 0
KCR2 180445Z 12007KT 03/M03 A3006 RMK A01 T00321032  RH  063%=      5-min Rain = 0
KCR2 180446Z 12007KT 03/M03 A3006 RMK A01 T00331032  RH  063%=      5-min Rain = 0
KCR2 180447Z 12007KT 03/M03 A3006 RMK A01 T00331031  RH  062%=      5-min Rain = 0
KCR2 180448Z 12007KT 03/M03 A3006 RMK A01 T00331032  RH  062%=      5-min Rain = 0
KCR2 180449Z 12007KT 03/M03 A3006 RMK A01 T00341032  RH  062%=      5-min Rain = 0
KCR2 180450Z 12007KT 04/M03 A3006 RMK A01 T00351032  RH  062%=      5-min Rain = 0
KCR2 180451Z 12007KT 04/M03 A3006 RMK A01 T00351032  RH  062%=      5-min Rain = 0
KCR2 180452Z 13007KT 04/M03 A3006 RMK A01 T00361032  RH  061%=      5-min Rain = 0
KCR2 180453Z 13007KT 04/M03 A3006 RMK A01 T00361032  RH  061%=      5-min Rain = 0
KCR2 180454Z 13007KT 04/M03 A3006 RMK A01 T00361032  RH  061%=      5-min Rain = 0
KCR2 180455Z 13007KT 04/M03 A3006 RMK A01 T00361032  RH  061%=      5-min Rain = 0
KCR2 180456Z 13007KT 04/M03 A3006 RMK A01 T00361032  RH  061%=      5-min Rain = 0
KCR2 180457Z 13007KT 04/M03 A3006 RMK A01 T00361032  RH  061%=      5-min Rain = 0
KCR2 180458Z 13007KT 04/M03 A3006 RMK A01 T00371032  RH  061%=      5-min Rain = 0
KCR2 180459Z 13007KT 04/M03 A3006 RMK A01 T00371032  RH  061%=      5-min Rain = 0
KCR2 180500Z 12007KT 04/M03 A3006 RMK A01 T00361032  RH  061%=      5-min Rain = 0
KCR2 180501Z 12007KT 04/M03 A3006 RMK A01 T00361032  RH  061%=      5-min Rain = 0
KCR2 180502Z 13006KT 04/M03 A3006 RMK A01 T00371032  RH  060%=      5-min Rain = 0
KCR2 180503Z 13006KT 04/M03 A3006 RMK A01 T00381033  RH  060%=      5-min Rain = 0
KCR2 180504Z 12006KT 04/M03 A3006 RMK A01 T00381033  RH  060%=      5-min Rain = 0
KCR2 180505Z 12006KT 04/M03 A3006 RMK A01 T00381033  RH  060%=      5-min Rain = 0
KCR2 180506Z 12006KT 04/M03 A3006 RMK A01 T00381033  RH  059%=      5-min Rain = 0
KCR2 180507Z 12006KT 04/M03 A3005 RMK A01 T00391033  RH  059%=      5-min Rain = 0
KCR2 180508Z 12006KT 04/M03 A3005 RMK A01 T00381033  RH  060%=      5-min Rain = 0
KCR2 180509Z 12005KT 04/M03 A3005 RMK A01 T00381033  RH  060%=      5-min Rain = 0
KCR2 180510Z 12006KT 04/M03 A3005 RMK A01 T00381033  RH  060%=      5-min Rain = 0
KCR2 180511Z 12005KT 04/M03 A3005 RMK A01 T00371033  RH  060%=      5-min Rain = 0
KCR2 180512Z 11005KT 04/M03 A3005 RMK A01 T00371034  RH  060%=      5-min Rain = 0
KCR2 180513Z 11005KT 04/M03 A3005 RMK A01 T00371034  RH  060%=      5-min Rain = 0
KCR2 180514Z 11005KT 04/M04 A3005 RMK A01 T00381035  RH  059%=      5-min Rain = 0
KCR2 180515Z 10005KT 04/M04 A3005 RMK A01 T00381035  RH  059%=      5-min Rain = 0
KCR2 180516Z 10004KT 04/M03 A3005 RMK A01 T00381034  RH  059%=      5-min Rain = 0
KCR2 180517Z 11005KT 04/M03 A3005 RMK A01 T00371034  RH  060%=      5-min Rain = 0
KCR2 180518Z 11004KT 04/M03 A3005 RMK A01 T00361034  RH  060%=      5-min Rain = 0
KCR2 180519Z 10004KT 04/M03 A3005 RMK A01 T00351033  RH  061%=      5-min Rain = 0
KCR2 180520Z 11005KT 03/M03 A3005 RMK A01 T00321033  RH  062%=      5-min Rain = 0
KCR2 180521Z 11005KT 03/M03 A3005 RMK A01 T00301033  RH  063%=      5-min Rain = 0
KCR2 180522Z 10004KT 03/M03 A3005 RMK A01 T00291033  RH  064%=      5-min Rain = 0
KCR2 180523Z 11004KT 03/M03 A3005 RMK A01 T00271033  RH  064%=      5-min Rain = 0
KCR2 180524Z 11005KT 03/M03 A3005 RMK A01 T00271033  RH  065%=      5-min Rain = 0
KCR2 180525Z 11005KT 03/M03 A3005 RMK A01 T00271033  RH  065%=      5-min Rain = 0
KCR2 180526Z 10005KT 03/M03 A3005 RMK A01 T00271033  RH  065%=      5-min Rain = 0
KCR2 180527Z 09005KT 03/M03 A3005 RMK A01 T00261033  RH  065%=      5-min Rain = 0
KCR2 180528Z 09005KT 03/M03 A3005 RMK A01 T00251033  RH  066%=      5-min Rain = 0
KCR2 180529Z 10005KT 02/M03 A3005 RMK A01 T00241033  RH  066%=      5-min Rain = 0
KCR2 180530Z 10006KT 02/M03 A3004 RMK A01 T00241033  RH  066%=      5-min Rain = 0
KCR2 180531Z 10006KT 02/M03 A3004 RMK A01 T00241033  RH  066%=      5-min Rain = 0
KCR2 180532Z 10006KT 02/M03 A3004 RMK A01 T00231033  RH  066%=      5-min Rain = 0
KCR2 180533Z 10006KT 02/M03 A3004 RMK A01 T00231033  RH  067%=      5-min Rain = 0
KCR2 180534Z 10006KT 02/M03 A3004 RMK A01 T00221033  RH  067%=      5-min Rain = 0
KCR2 180535Z 11006KT 02/M03 A3004 RMK A01 T00211033  RH  068%=      5-min Rain = 0
KCR2 180536Z 12006KT 02/M03 A3004 RMK A01 T00201033  RH  068%=      5-min Rain = 0
KCR2 180537Z 11005KT 02/M03 A3004 RMK A01 T00201032  RH  068%=      5-min Rain = 0
KCR2 180538Z 10005KT 02/M03 A3004 RMK A01 T00201032  RH  068%=      5-min Rain = 0
KCR2 180539Z 10005KT 02/M03 A3004 RMK A01 T00191033  RH  069%=      5-min Rain = 0
KCR2 180540Z 11005KT 02/M03 A3004 RMK A01 T00181032  RH  069%=      5-min Rain = 0
KCR2 180541Z 11005KT 02/M03 A3004 RMK A01 T00181033  RH  069%=      5-min Rain = 0
KCR2 180542Z 11005KT 02/M03 A3004 RMK A01 T00171032  RH  070%=      5-min Rain = 0
KCR2 180543Z 09005KT 02/M03 A3004 RMK A01 T00161033  RH  070%=      5-min Rain = 0
KCR2 180544Z 09005KT 02/M03 A3004 RMK A01 T00161033  RH  070%=      5-min Rain = 0
KCR2 180545Z 10005KT 02/M03 A3004 RMK A01 T00151033  RH  070%=      5-min Rain = 0
KCR2 180546Z 11006KT 02/M03 A3004 RMK A01 T00151033  RH  071%=      5-min Rain = 0
KCR2 180547Z 11006KT 02/M03 A3004 RMK A01 T00151033  RH  071%=      5-min Rain = 0
KCR2 180548Z 10006KT 02/M03 A3004 RMK A01 T00151033  RH  071%=      5-min Rain = 0
KCR2 180549Z 10005KT 02/M03 A3004 RMK A01 T00151032  RH  071%=      5-min Rain = 0
KCR2 180550Z 09005KT 01/M03 A3004 RMK A01 T00141033  RH  071%=      5-min Rain = 0
KCR2 180551Z 08004KT 01/M03 A3003 RMK A01 T00141033  RH  071%=      5-min Rain = 0
KCR2 180552Z 09005KT 01/M03 A3003 RMK A01 T00141033  RH  071%=      5-min Rain = 0
KCR2 180553Z 10005KT 01/M03 A3003 RMK A01 T00141033  RH  071%=      5-min Rain = 0
KCR2 180554Z 10005KT 01/M03 A3003 RMK A01 T00141033  RH  071%=      5-min Rain = 0
KCR2 180555Z 10005KT 01/M03 A3004 RMK A01 T00131033  RH  071%=      5-min Rain = 0
KCR2 180556Z 11005KT 01/M03 A3004 RMK A01 T00131033  RH  071%=      5-min Rain = 0
KCR2 180557Z 11004KT 01/M03 A3004 RMK A01 T00131033  RH  072%=      5-min Rain = 0
KCR2 180558Z 11004KT 01/M03 A3003 RMK A01 T00121033  RH  072%=      5-min Rain = 0
KCR2 180559Z 10004KT 01/M03 A3003 RMK A01 T00121033  RH  072%=      5-min Rain = 0

Page generated in 0.1197 seconds.